<?xml version='1.0' encoding='UTF-8'?><gpx version="1.1" creator="JPX - https://github.com/jenetics/jpx" xmlns="http://www.topografix.com/GPX/1/1"><trk><trkseg><trkpt lat="49.9520222" lon="16.8747082"><ele>309.00000000000006</ele><time>2026-05-03T08:26:29.627Z</time></trkpt><trkpt lat="49.9519755" lon="16.8746211"><ele>309.0</ele><time>2026-05-03T08:26:35.586Z</time></trkpt><trkpt lat="49.9519523" lon="16.8745156"><ele>309.0</ele><time>2026-05-03T08:26:42.493Z</time></trkpt><trkpt lat="49.9519346" lon="16.8744089"><ele>309.0</ele><time>2026-05-03T08:26:48.626Z</time></trkpt><trkpt lat="49.9519004" lon="16.8743234"><ele>309.0</ele><time>2026-05-03T08:26:55.45Z</time></trkpt><trkpt lat="49.9518946" lon="16.8741896"><ele>309.00000000000006</ele><time>2026-05-03T08:27:02.574Z</time></trkpt><trkpt lat="49.9518961" lon="16.8740915"><ele>309.0</ele><time>2026-05-03T08:27:05.583Z</time></trkpt><trkpt lat="49.9518551" lon="16.8739827"><ele>309.00000000000006</ele><time>2026-05-03T08:27:11.664Z</time></trkpt><trkpt lat="49.9518196" lon="16.8738902"><ele>309.0</ele><time>2026-05-03T08:27:15.653Z</time></trkpt><trkpt lat="49.9518011" lon="16.8737957"><ele>309.0</ele><time>2026-05-03T08:27:24.573Z</time></trkpt><trkpt lat="49.9517612" lon="16.8737156"><ele>309.0</ele><time>2026-05-03T08:27:30.389Z</time></trkpt><trkpt lat="49.9517572" lon="16.873573"><ele>309.0</ele><time>2026-05-03T08:27:37.05Z</time></trkpt><trkpt lat="49.9517599" lon="16.8734642"><ele>309.00000000000006</ele><time>2026-05-03T08:27:44.553Z</time></trkpt><trkpt lat="49.9517723" lon="16.8733608"><ele>309.0</ele><time>2026-05-03T08:27:50.603Z</time></trkpt><trkpt lat="49.9517047" lon="16.8732815"><ele>309.00000000000006</ele><time>2026-05-03T08:27:52.665Z</time></trkpt><trkpt lat="49.9516619" lon="16.8732032"><ele>309.0</ele><time>2026-05-03T08:27:54.656Z</time></trkpt><trkpt lat="49.9516454" lon="16.8731049"><ele>309.0</ele><time>2026-05-03T08:27:58.53Z</time></trkpt><trkpt lat="49.951604" lon="16.8730086"><ele>309.0</ele><time>2026-05-03T08:28:04.634Z</time></trkpt><trkpt lat="49.9515763" lon="16.8729131"><ele>309.0</ele><time>2026-05-03T08:28:10.477Z</time></trkpt><trkpt lat="49.9515487" lon="16.8728091"><ele>309.00000000000006</ele><time>2026-05-03T08:28:16.274Z</time></trkpt><trkpt lat="49.9515123" lon="16.872719"><ele>309.0</ele><time>2026-05-03T08:28:22.257Z</time></trkpt><trkpt lat="49.951488" lon="16.8726144"><ele>309.5</ele><time>2026-05-03T08:28:28.156Z</time></trkpt><trkpt lat="49.9514616" lon="16.8725114"><ele>310.0</ele><time>2026-05-03T08:28:33.64Z</time></trkpt><trkpt lat="49.9514558" lon="16.8724094"><ele>310.5</ele><time>2026-05-03T08:28:44.356Z</time></trkpt><trkpt lat="49.9513798" lon="16.8722848"><ele>311.0</ele><time>2026-05-03T08:28:47.537Z</time></trkpt><trkpt lat="49.951345" lon="16.872202"><ele>311.5</ele><time>2026-05-03T08:28:52.337Z</time></trkpt><trkpt lat="49.9513315" lon="16.8720899"><ele>312.0</ele><time>2026-05-03T08:28:56.666Z</time></trkpt><trkpt lat="49.9512996" lon="16.8719873"><ele>312.0</ele><time>2026-05-03T08:29:05.681Z</time></trkpt><trkpt lat="49.9512696" lon="16.8718807"><ele>312.0</ele><time>2026-05-03T08:29:09.095Z</time></trkpt><trkpt lat="49.9512196" lon="16.8717916"><ele>312.0</ele><time>2026-05-03T08:29:14.275Z</time></trkpt><trkpt lat="49.951279" lon="16.871836"><ele>312.0</ele><time>2026-05-03T08:29:27.647Z</time></trkpt><trkpt lat="49.9513116" lon="16.8719344"><ele>312.0</ele><time>2026-05-03T08:29:32.628Z</time></trkpt><trkpt lat="49.9513508" lon="16.8720319"><ele>312.0</ele><time>2026-05-03T08:29:37.641Z</time></trkpt><trkpt lat="49.9513988" lon="16.8721204"><ele>312.0</ele><time>2026-05-03T08:29:42.619Z</time></trkpt><trkpt lat="49.9514607" lon="16.8720836"><ele>312.0</ele><time>2026-05-03T08:29:47.637Z</time></trkpt><trkpt lat="49.9515222" lon="16.8720313"><ele>312.0</ele><time>2026-05-03T08:29:52.628Z</time></trkpt><trkpt lat="49.9515887" lon="16.8719756"><ele>312.0</ele><time>2026-05-03T08:29:58.639Z</time></trkpt><trkpt lat="49.9516343" lon="16.8718933"><ele>312.0</ele><time>2026-05-03T08:30:04.62Z</time></trkpt><trkpt lat="49.9516917" lon="16.8718321"><ele>312.0</ele><time>2026-05-03T08:30:10.673Z</time></trkpt><trkpt lat="49.9517369" lon="16.8717431"><ele>312.0</ele><time>2026-05-03T08:30:17.655Z</time></trkpt><trkpt lat="49.9517852" lon="16.8716783"><ele>312.0</ele><time>2026-05-03T08:30:21.675Z</time></trkpt><trkpt lat="49.9518417" lon="16.8716231"><ele>311.8571428571429</ele><time>2026-05-03T08:30:25.656Z</time></trkpt><trkpt lat="49.951903" lon="16.8715824"><ele>311.71428571428567</ele><time>2026-05-03T08:30:31.678Z</time></trkpt><trkpt lat="49.9519674" lon="16.8715159"><ele>311.57142857142856</ele><time>2026-05-03T08:30:35.665Z</time></trkpt><trkpt lat="49.9520192" lon="16.8714386"><ele>311.42857142857144</ele><time>2026-05-03T08:30:40.677Z</time></trkpt><trkpt lat="49.9520683" lon="16.8713695"><ele>311.28571428571433</ele><time>2026-05-03T08:30:47.669Z</time></trkpt><trkpt lat="49.952129" lon="16.8713265"><ele>311.1428571428571</ele><time>2026-05-03T08:30:50.663Z</time></trkpt><trkpt lat="49.9522076" lon="16.8712564"><ele>311.0</ele><time>2026-05-03T08:31:02.617Z</time></trkpt><trkpt lat="49.9522798" lon="16.8711625"><ele>311.0</ele><time>2026-05-03T08:31:04.679Z</time></trkpt><trkpt lat="49.9523359" lon="16.871079"><ele>311.0</ele><time>2026-05-03T08:31:11.65Z</time></trkpt><trkpt lat="49.9524227" lon="16.8709903"><ele>311.0</ele><time>2026-05-03T08:31:17.681Z</time></trkpt><trkpt lat="49.9524785" lon="16.8708997"><ele>311.0</ele><time>2026-05-03T08:31:23.669Z</time></trkpt><trkpt lat="49.9525471" lon="16.8708767"><ele>311.0</ele><time>2026-05-03T08:31:28.668Z</time></trkpt><trkpt lat="49.9525667" lon="16.870781"><ele>311.0</ele><time>2026-05-03T08:31:32.674Z</time></trkpt><trkpt lat="49.9526135" lon="16.8706987"><ele>311.2857142857143</ele><time>2026-05-03T08:31:36.68Z</time></trkpt><trkpt lat="49.9526755" lon="16.8706555"><ele>311.5714285714286</ele><time>2026-05-03T08:31:41.666Z</time></trkpt><trkpt lat="49.9527186" lon="16.870583"><ele>311.8571428571429</ele><time>2026-05-03T08:31:47.641Z</time></trkpt><trkpt lat="49.952774" lon="16.8705315"><ele>312.1428571428571</ele><time>2026-05-03T08:31:52.671Z</time></trkpt><trkpt lat="49.9527638" lon="16.8704219"><ele>312.42857142857144</ele><time>2026-05-03T08:31:56.671Z</time></trkpt><trkpt lat="49.9528434" lon="16.8703128"><ele>312.7142857142857</ele><time>2026-05-03T08:32:01.676Z</time></trkpt><trkpt lat="49.9528418" lon="16.8702067"><ele>313.0</ele><time>2026-05-03T08:32:06.667Z</time></trkpt><trkpt lat="49.9529001" lon="16.8701156"><ele>313.0</ele><time>2026-05-03T08:32:13.659Z</time></trkpt><trkpt lat="49.9529432" lon="16.8700129"><ele>313.0</ele><time>2026-05-03T08:32:15.668Z</time></trkpt><trkpt lat="49.9529482" lon="16.8699107"><ele>313.0</ele><time>2026-05-03T08:32:20.665Z</time></trkpt><trkpt lat="49.9529761" lon="16.8698043"><ele>313.0</ele><time>2026-05-03T08:32:29.668Z</time></trkpt><trkpt lat="49.9530221" lon="16.8697202"><ele>313.0</ele><time>2026-05-03T08:32:32.673Z</time></trkpt><trkpt lat="49.9530675" lon="16.8696371"><ele>313.0</ele><time>2026-05-03T08:32:38.672Z</time></trkpt><trkpt lat="49.9531097" lon="16.8695627"><ele>313.0</ele><time>2026-05-03T08:32:41.667Z</time></trkpt><trkpt lat="49.9531594" lon="16.8695016"><ele>313.0</ele><time>2026-05-03T08:32:45.659Z</time></trkpt><trkpt lat="49.9532083" lon="16.8693527"><ele>313.0</ele><time>2026-05-03T08:32:55.678Z</time></trkpt><trkpt lat="49.9532478" lon="16.8692528"><ele>313.0</ele><time>2026-05-03T08:32:59.687Z</time></trkpt><trkpt lat="49.9532409" lon="16.8691363"><ele>313.0</ele><time>2026-05-03T08:33:05.667Z</time></trkpt><trkpt lat="49.9532627" lon="16.8690233"><ele>313.0</ele><time>2026-05-03T08:33:12.255Z</time></trkpt><trkpt lat="49.953314" lon="16.8689536"><ele>313.0</ele><time>2026-05-03T08:33:16.654Z</time></trkpt><trkpt lat="49.9533413" lon="16.8687991"><ele>313.0</ele><time>2026-05-03T08:33:24.579Z</time></trkpt><trkpt lat="49.9533623" lon="16.8686922"><ele>313.0</ele><time>2026-05-03T08:33:27.66Z</time></trkpt><trkpt lat="49.9533452" lon="16.8685835"><ele>313.0</ele><time>2026-05-03T08:33:36.515Z</time></trkpt><trkpt lat="49.9533986" lon="16.8684786"><ele>313.0</ele><time>2026-05-03T08:33:39.686Z</time></trkpt><trkpt lat="49.953343" lon="16.8684206"><ele>313.0</ele><time>2026-05-03T08:33:46.667Z</time></trkpt><trkpt lat="49.9533848" lon="16.868338"><ele>313.0</ele><time>2026-05-03T08:33:51.681Z</time></trkpt><trkpt lat="49.9534584" lon="16.8681347"><ele>313.6</ele><time>2026-05-03T08:33:59.138Z</time></trkpt><trkpt lat="49.9534836" lon="16.8680153"><ele>314.20000000000005</ele><time>2026-05-03T08:34:03.7Z</time></trkpt><trkpt lat="49.9534903" lon="16.8677787"><ele>314.8</ele><time>2026-05-03T08:34:15.667Z</time></trkpt><trkpt lat="49.9535047" lon="16.8676764"><ele>315.40000000000003</ele><time>2026-05-03T08:34:18.519Z</time></trkpt><trkpt lat="49.9535236" lon="16.8675216"><ele>316.0</ele><time>2026-05-03T08:34:27.66Z</time></trkpt><trkpt lat="49.9535476" lon="16.8674135"><ele>316.00000000000006</ele><time>2026-05-03T08:34:58.658Z</time></trkpt><trkpt lat="49.953545" lon="16.8672995"><ele>316.0</ele><time>2026-05-03T08:35:03.679Z</time></trkpt><trkpt lat="49.9535332" lon="16.8671949"><ele>316.0</ele><time>2026-05-03T08:35:11.678Z</time></trkpt><trkpt lat="49.9535665" lon="16.8671021"><ele>316.0</ele><time>2026-05-03T08:35:13.537Z</time></trkpt><trkpt lat="49.9535674" lon="16.8670025"><ele>316.0</ele><time>2026-05-03T08:35:16.665Z</time></trkpt><trkpt lat="49.953576" lon="16.8669005"><ele>316.00000000000006</ele><time>2026-05-03T08:35:21.661Z</time></trkpt><trkpt lat="49.9535653" lon="16.8667967"><ele>316.0</ele><time>2026-05-03T08:35:26.696Z</time></trkpt><trkpt lat="49.9535555" lon="16.866689"><ele>316.5714285714286</ele><time>2026-05-03T08:35:31.576Z</time></trkpt><trkpt lat="49.9535912" lon="16.8665886"><ele>317.14285714285717</ele><time>2026-05-03T08:35:36.177Z</time></trkpt><trkpt lat="49.9536329" lon="16.866487"><ele>317.7142857142857</ele><time>2026-05-03T08:35:41.62Z</time></trkpt><trkpt lat="49.9536613" lon="16.8663941"><ele>318.28571428571433</ele><time>2026-05-03T08:35:47.618Z</time></trkpt><trkpt lat="49.9536941" lon="16.8663094"><ele>318.8571428571429</ele><time>2026-05-03T08:35:52.564Z</time></trkpt><trkpt lat="49.953709" lon="16.866195"><ele>319.42857142857144</ele><time>2026-05-03T08:35:59.677Z</time></trkpt><trkpt lat="49.9537358" lon="16.86609"><ele>320.0</ele><time>2026-05-03T08:36:06.647Z</time></trkpt><trkpt lat="49.9538018" lon="16.8660562"><ele>320.0</ele><time>2026-05-03T08:36:10.68Z</time></trkpt><trkpt lat="49.9538703" lon="16.8660337"><ele>320.0</ele><time>2026-05-03T08:36:15.661Z</time></trkpt><trkpt lat="49.9539369" lon="16.8659986"><ele>320.0</ele><time>2026-05-03T08:36:24.689Z</time></trkpt><trkpt lat="49.9539988" lon="16.8659666"><ele>320.0</ele><time>2026-05-03T08:36:35.662Z</time></trkpt><trkpt lat="49.9540432" lon="16.8660482"><ele>320.0</ele><time>2026-05-03T08:37:08.632Z</time></trkpt><trkpt lat="49.9539992" lon="16.8659634"><ele>320.0</ele><time>2026-05-03T08:37:14.669Z</time></trkpt><trkpt lat="49.9539386" lon="16.8655944"><ele>320.2857142857143</ele><time>2026-05-03T08:37:16.697Z</time></trkpt><trkpt lat="49.9539131" lon="16.8654942"><ele>320.57142857142856</ele><time>2026-05-03T08:37:17.661Z</time></trkpt><trkpt lat="49.9539104" lon="16.8653789"><ele>320.8571428571429</ele><time>2026-05-03T08:37:22.672Z</time></trkpt><trkpt lat="49.9539077" lon="16.8652723"><ele>321.1428571428571</ele><time>2026-05-03T08:37:27.676Z</time></trkpt><trkpt lat="49.9538884" lon="16.8651777"><ele>321.42857142857144</ele><time>2026-05-03T08:37:31.675Z</time></trkpt><trkpt lat="49.9538524" lon="16.8650889"><ele>321.7142857142857</ele><time>2026-05-03T08:37:37.674Z</time></trkpt><trkpt lat="49.9538256" lon="16.8649835"><ele>322.0</ele><time>2026-05-03T08:37:46.633Z</time></trkpt><trkpt lat="49.9537543" lon="16.8649412"><ele>322.40000000000003</ele><time>2026-05-03T08:37:51.656Z</time></trkpt><trkpt lat="49.9536692" lon="16.8647751"><ele>322.8</ele><time>2026-05-03T08:37:58.258Z</time></trkpt><trkpt lat="49.9536056" lon="16.8647365"><ele>323.2</ele><time>2026-05-03T08:38:02.497Z</time></trkpt><trkpt lat="49.9535385" lon="16.8646948"><ele>323.6</ele><time>2026-05-03T08:38:07.644Z</time></trkpt><trkpt lat="49.953447" lon="16.8646366"><ele>324.0</ele><time>2026-05-03T08:38:33.69Z</time></trkpt><trkpt lat="49.9533852" lon="16.8645745"><ele>324.57142857142856</ele><time>2026-05-03T08:38:37.622Z</time></trkpt><trkpt lat="49.9533482" lon="16.8644793"><ele>325.1428571428571</ele><time>2026-05-03T08:38:51.652Z</time></trkpt><trkpt lat="49.9532931" lon="16.8643963"><ele>325.71428571428567</ele><time>2026-05-03T08:38:54.671Z</time></trkpt><trkpt lat="49.9532428" lon="16.8643351"><ele>326.2857142857143</ele><time>2026-05-03T08:39:01.614Z</time></trkpt><trkpt lat="49.9531832" lon="16.8642673"><ele>326.85714285714283</ele><time>2026-05-03T08:39:08.615Z</time></trkpt><trkpt lat="49.9531511" lon="16.8641547"><ele>327.4285714285714</ele><time>2026-05-03T08:39:12.658Z</time></trkpt><trkpt lat="49.9531193" lon="16.8640509"><ele>328.0</ele><time>2026-05-03T08:39:16.67Z</time></trkpt><trkpt lat="49.9530791" lon="16.8639594"><ele>327.99999999999994</ele><time>2026-05-03T08:39:25.678Z</time></trkpt><trkpt lat="49.9530224" lon="16.8639124"><ele>328.0</ele><time>2026-05-03T08:39:29.674Z</time></trkpt><trkpt lat="49.9529845" lon="16.8638154"><ele>328.0</ele><time>2026-05-03T08:39:34.608Z</time></trkpt><trkpt lat="49.9529573" lon="16.8637164"><ele>328.0</ele><time>2026-05-03T08:39:38.639Z</time></trkpt><trkpt lat="49.9529201" lon="16.8636249"><ele>328.0</ele><time>2026-05-03T08:39:42.619Z</time></trkpt><trkpt lat="49.9528705" lon="16.8635628"><ele>327.99999999999994</ele><time>2026-05-03T08:39:46.635Z</time></trkpt><trkpt lat="49.9528147" lon="16.8634877"><ele>328.0</ele><time>2026-05-03T08:39:51.632Z</time></trkpt><trkpt lat="49.9527668" lon="16.8634012"><ele>328.2857142857143</ele><time>2026-05-03T08:39:56.439Z</time></trkpt><trkpt lat="49.9527245" lon="16.8633084"><ele>328.57142857142856</ele><time>2026-05-03T08:40:02.635Z</time></trkpt><trkpt lat="49.9526751" lon="16.8632357"><ele>328.8571428571429</ele><time>2026-05-03T08:40:08.614Z</time></trkpt><trkpt lat="49.952624" lon="16.8631603"><ele>329.1428571428571</ele><time>2026-05-03T08:40:14.629Z</time></trkpt><trkpt lat="49.9525734" lon="16.863085"><ele>329.42857142857144</ele><time>2026-05-03T08:40:20.617Z</time></trkpt><trkpt lat="49.9525309" lon="16.8629918"><ele>329.7142857142857</ele><time>2026-05-03T08:40:26.618Z</time></trkpt><trkpt lat="49.9524817" lon="16.8629089"><ele>330.0</ele><time>2026-05-03T08:40:31.6Z</time></trkpt><trkpt lat="49.9524232" lon="16.862851"><ele>330.3333333333333</ele><time>2026-05-03T08:40:42.661Z</time></trkpt><trkpt lat="49.9524249" lon="16.8627435"><ele>330.6666666666667</ele><time>2026-05-03T08:40:46.376Z</time></trkpt><trkpt lat="49.9523866" lon="16.8626432"><ele>331.0</ele><time>2026-05-03T08:40:51.557Z</time></trkpt><trkpt lat="49.95231" lon="16.862549"><ele>331.33333333333337</ele><time>2026-05-03T08:40:58.462Z</time></trkpt><trkpt lat="49.9522919" lon="16.8624524"><ele>331.6666666666667</ele><time>2026-05-03T08:41:02.24Z</time></trkpt><trkpt lat="49.9522378" lon="16.862386"><ele>332.0</ele><time>2026-05-03T08:41:08.673Z</time></trkpt><trkpt lat="49.9522189" lon="16.8621899"><ele>332.2857142857143</ele><time>2026-05-03T08:41:16.396Z</time></trkpt><trkpt lat="49.9522213" lon="16.862085"><ele>332.5714285714286</ele><time>2026-05-03T08:41:22.078Z</time></trkpt><trkpt lat="49.9521634" lon="16.8620167"><ele>332.8571428571429</ele><time>2026-05-03T08:41:34.659Z</time></trkpt><trkpt lat="49.9521482" lon="16.8618943"><ele>333.1428571428571</ele><time>2026-05-03T08:41:35.602Z</time></trkpt><trkpt lat="49.952147" lon="16.861781"><ele>333.42857142857144</ele><time>2026-05-03T08:41:37.555Z</time></trkpt><trkpt lat="49.9521053" lon="16.8617045"><ele>333.7142857142857</ele><time>2026-05-03T08:41:47.335Z</time></trkpt><trkpt lat="49.9520851" lon="16.8616057"><ele>334.0</ele><time>2026-05-03T08:41:50.197Z</time></trkpt><trkpt lat="49.9520974" lon="16.861507"><ele>334.85714285714283</ele><time>2026-05-03T08:41:57.157Z</time></trkpt><trkpt lat="49.9520862" lon="16.861391"><ele>335.7142857142857</ele><time>2026-05-03T08:42:02.68Z</time></trkpt><trkpt lat="49.952074" lon="16.8612876"><ele>336.57142857142856</ele><time>2026-05-03T08:42:10.561Z</time></trkpt><trkpt lat="49.9520824" lon="16.8611894"><ele>337.42857142857144</ele><time>2026-05-03T08:42:14.452Z</time></trkpt><trkpt lat="49.9520235" lon="16.8611219"><ele>338.2857142857143</ele><time>2026-05-03T08:42:23.672Z</time></trkpt><trkpt lat="49.9519677" lon="16.8610552"><ele>339.14285714285717</ele><time>2026-05-03T08:42:41.671Z</time></trkpt><trkpt lat="49.9519413" lon="16.860953"><ele>340.0</ele><time>2026-05-03T08:42:51.535Z</time></trkpt><trkpt lat="49.952004" lon="16.8609088"><ele>346.0</ele><time>2026-05-03T08:43:00.669Z</time></trkpt><trkpt lat="49.9521025" lon="16.8601705"><ele>347.16666666666663</ele><time>2026-05-03T08:43:19.68Z</time></trkpt><trkpt lat="49.9521503" lon="16.8599007"><ele>348.3333333333333</ele><time>2026-05-03T08:43:20.672Z</time></trkpt><trkpt lat="49.9521895" lon="16.8597998"><ele>349.5</ele><time>2026-05-03T08:43:25.673Z</time></trkpt><trkpt lat="49.9521873" lon="16.8597019"><ele>350.6666666666667</ele><time>2026-05-03T08:43:32.653Z</time></trkpt><trkpt lat="49.952203" lon="16.8596043"><ele>351.83333333333337</ele><time>2026-05-03T08:43:41.664Z</time></trkpt><trkpt lat="49.9522003" lon="16.8595039"><ele>353.0</ele><time>2026-05-03T08:43:45.657Z</time></trkpt><trkpt lat="49.9522161" lon="16.8593999"><ele>353.0</ele><time>2026-05-03T08:43:50.636Z</time></trkpt><trkpt lat="49.9522252" lon="16.8592991"><ele>353.0</ele><time>2026-05-03T08:43:54.572Z</time></trkpt><trkpt lat="49.9522399" lon="16.8591939"><ele>353.0</ele><time>2026-05-03T08:43:58.61Z</time></trkpt><trkpt lat="49.9522778" lon="16.8590981"><ele>353.0</ele><time>2026-05-03T08:44:03.621Z</time></trkpt><trkpt lat="49.9523081" lon="16.8589986"><ele>353.0</ele><time>2026-05-03T08:44:09.579Z</time></trkpt><trkpt lat="49.9523028" lon="16.8588974"><ele>353.0</ele><time>2026-05-03T08:44:19.618Z</time></trkpt><trkpt lat="49.9523345" lon="16.8588077"><ele>353.0</ele><time>2026-05-03T08:44:28.671Z</time></trkpt><trkpt lat="49.9523432" lon="16.8587062"><ele>353.85714285714283</ele><time>2026-05-03T08:44:34.653Z</time></trkpt><trkpt lat="49.9523236" lon="16.8585585"><ele>354.7142857142857</ele><time>2026-05-03T08:44:47.723Z</time></trkpt><trkpt lat="49.9523464" lon="16.8584634"><ele>355.57142857142856</ele><time>2026-05-03T08:44:49.666Z</time></trkpt><trkpt lat="49.9523494" lon="16.8583612"><ele>356.42857142857144</ele><time>2026-05-03T08:44:55.65Z</time></trkpt><trkpt lat="49.9524015" lon="16.8582993"><ele>357.28571428571433</ele><time>2026-05-03T08:45:03.664Z</time></trkpt><trkpt lat="49.9524324" lon="16.8582136"><ele>358.14285714285717</ele><time>2026-05-03T08:45:08.663Z</time></trkpt><trkpt lat="49.9524334" lon="16.8581056"><ele>359.0</ele><time>2026-05-03T08:45:15.659Z</time></trkpt><trkpt lat="49.9523885" lon="16.8579797"><ele>359.42857142857144</ele><time>2026-05-03T08:45:28.568Z</time></trkpt><trkpt lat="49.9523767" lon="16.8578514"><ele>359.8571428571429</ele><time>2026-05-03T08:45:30.661Z</time></trkpt><trkpt lat="49.9523785" lon="16.8577517"><ele>360.2857142857143</ele><time>2026-05-03T08:45:35.127Z</time></trkpt><trkpt lat="49.9523717" lon="16.8576458"><ele>360.7142857142857</ele><time>2026-05-03T08:45:41.654Z</time></trkpt><trkpt lat="49.9523479" lon="16.8575393"><ele>361.1428571428571</ele><time>2026-05-03T08:45:48.657Z</time></trkpt><trkpt lat="49.95235" lon="16.8574363"><ele>361.57142857142856</ele><time>2026-05-03T08:45:58.643Z</time></trkpt><trkpt lat="49.9523182" lon="16.8573369"><ele>362.0</ele><time>2026-05-03T08:46:02.66Z</time></trkpt><trkpt lat="49.9522917" lon="16.857235"><ele>362.0</ele><time>2026-05-03T08:46:09.662Z</time></trkpt><trkpt lat="49.9523025" lon="16.8571383"><ele>362.0</ele><time>2026-05-03T08:46:17.663Z</time></trkpt><trkpt lat="49.9522995" lon="16.8570378"><ele>362.0</ele><time>2026-05-03T08:46:22.674Z</time></trkpt><trkpt lat="49.9522868" lon="16.8569358"><ele>362.0</ele><time>2026-05-03T08:46:27.629Z</time></trkpt><trkpt lat="49.9522481" lon="16.8568264"><ele>362.0</ele><time>2026-05-03T08:46:38.676Z</time></trkpt><trkpt lat="49.9522675" lon="16.856714"><ele>362.0</ele><time>2026-05-03T08:46:52.658Z</time></trkpt><trkpt lat="49.9522813" lon="16.856597"><ele>362.0</ele><time>2026-05-03T08:46:54.61Z</time></trkpt><trkpt lat="49.9522949" lon="16.8564791"><ele>362.42857142857144</ele><time>2026-05-03T08:46:57.673Z</time></trkpt><trkpt lat="49.9522785" lon="16.8563844"><ele>362.85714285714283</ele><time>2026-05-03T08:47:04.639Z</time></trkpt><trkpt lat="49.9522802" lon="16.8562668"><ele>363.28571428571433</ele><time>2026-05-03T08:47:14.66Z</time></trkpt><trkpt lat="49.9523051" lon="16.8561751"><ele>363.7142857142857</ele><time>2026-05-03T08:47:20.675Z</time></trkpt><trkpt lat="49.9522692" lon="16.8560497"><ele>364.14285714285717</ele><time>2026-05-03T08:47:27.663Z</time></trkpt><trkpt lat="49.9522419" lon="16.8559341"><ele>364.5714285714286</ele><time>2026-05-03T08:47:32.673Z</time></trkpt><trkpt lat="49.9522239" lon="16.8558374"><ele>365.0</ele><time>2026-05-03T08:47:39.69Z</time></trkpt><trkpt lat="49.952204" lon="16.8557392"><ele>366.0</ele><time>2026-05-03T08:47:55.62Z</time></trkpt><trkpt lat="49.9521872" lon="16.8556446"><ele>367.0</ele><time>2026-05-03T08:48:03.665Z</time></trkpt><trkpt lat="49.9521632" lon="16.8554593"><ele>368.0</ele><time>2026-05-03T08:48:22.613Z</time></trkpt><trkpt lat="49.9521896" lon="16.855344"><ele>369.0</ele><time>2026-05-03T08:48:24.616Z</time></trkpt><trkpt lat="49.9522141" lon="16.8552342"><ele>370.0</ele><time>2026-05-03T08:48:29.621Z</time></trkpt><trkpt lat="49.9522054" lon="16.8551346"><ele>371.0</ele><time>2026-05-03T08:48:39.618Z</time></trkpt><trkpt lat="49.9522138" lon="16.8550251"><ele>372.2857142857143</ele><time>2026-05-03T08:48:48.614Z</time></trkpt><trkpt lat="49.9522152" lon="16.854919"><ele>373.57142857142856</ele><time>2026-05-03T08:48:55.632Z</time></trkpt><trkpt lat="49.9522179" lon="16.8548189"><ele>374.8571428571429</ele><time>2026-05-03T08:49:02.533Z</time></trkpt><trkpt lat="49.9522144" lon="16.8547122"><ele>376.1428571428571</ele><time>2026-05-03T08:49:09.629Z</time></trkpt><trkpt lat="49.9522028" lon="16.8546134"><ele>377.42857142857144</ele><time>2026-05-03T08:49:16.618Z</time></trkpt><trkpt lat="49.952205" lon="16.8545146"><ele>378.7142857142857</ele><time>2026-05-03T08:49:23.644Z</time></trkpt><trkpt lat="49.9521875" lon="16.8544135"><ele>380.0</ele><time>2026-05-03T08:49:31.617Z</time></trkpt><trkpt lat="49.952167" lon="16.85432"><ele>381.7142857142857</ele><time>2026-05-03T08:49:38.613Z</time></trkpt><trkpt lat="49.9521286" lon="16.8542271"><ele>383.42857142857144</ele><time>2026-05-03T08:49:46.664Z</time></trkpt><trkpt lat="49.9521416" lon="16.8541249"><ele>385.1428571428571</ele><time>2026-05-03T08:49:54.661Z</time></trkpt><trkpt lat="49.9521137" lon="16.8540334"><ele>386.8571428571429</ele><time>2026-05-03T08:50:00.641Z</time></trkpt><trkpt lat="49.9521237" lon="16.8539296"><ele>388.57142857142856</ele><time>2026-05-03T08:50:08.672Z</time></trkpt><trkpt lat="49.9521701" lon="16.8538474"><ele>390.2857142857143</ele><time>2026-05-03T08:50:14.62Z</time></trkpt><trkpt lat="49.9521684" lon="16.8537435"><ele>392.0</ele><time>2026-05-03T08:50:20.679Z</time></trkpt><trkpt lat="49.9521329" lon="16.8536433"><ele>391.99999999999994</ele><time>2026-05-03T08:50:31.647Z</time></trkpt><trkpt lat="49.9521124" lon="16.8535206"><ele>392.0</ele><time>2026-05-03T08:50:40.221Z</time></trkpt><trkpt lat="49.9521309" lon="16.8534223"><ele>392.0</ele><time>2026-05-03T08:50:41.689Z</time></trkpt><trkpt lat="49.9521156" lon="16.8533214"><ele>392.0</ele><time>2026-05-03T08:50:48.62Z</time></trkpt><trkpt lat="49.9520985" lon="16.8531745"><ele>391.99999999999994</ele><time>2026-05-03T08:51:00.662Z</time></trkpt><trkpt lat="49.9521067" lon="16.853058"><ele>392.0</ele><time>2026-05-03T08:51:03.665Z</time></trkpt><trkpt lat="49.9520967" lon="16.8529439"><ele>393.14285714285717</ele><time>2026-05-03T08:51:09.612Z</time></trkpt><trkpt lat="49.9520698" lon="16.8528533"><ele>394.2857142857143</ele><time>2026-05-03T08:51:18.655Z</time></trkpt><trkpt lat="49.9520583" lon="16.8527468"><ele>395.42857142857144</ele><time>2026-05-03T08:51:22.665Z</time></trkpt><trkpt lat="49.9520335" lon="16.8526561"><ele>396.57142857142856</ele><time>2026-05-03T08:51:28.647Z</time></trkpt><trkpt lat="49.9520007" lon="16.8525719"><ele>397.7142857142857</ele><time>2026-05-03T08:51:34.664Z</time></trkpt><trkpt lat="49.951961" lon="16.8524937"><ele>398.8571428571429</ele><time>2026-05-03T08:51:39.633Z</time></trkpt><trkpt lat="49.9519751" lon="16.8523861"><ele>400.0</ele><time>2026-05-03T08:51:51.673Z</time></trkpt><trkpt lat="49.9519747" lon="16.8522613"><ele>402.5714285714286</ele><time>2026-05-03T08:51:54.675Z</time></trkpt><trkpt lat="49.9519321" lon="16.8521632"><ele>405.14285714285717</ele><time>2026-05-03T08:51:58.651Z</time></trkpt><trkpt lat="49.9518861" lon="16.8520929"><ele>407.7142857142857</ele><time>2026-05-03T08:52:03.612Z</time></trkpt><trkpt lat="49.9518587" lon="16.8519923"><ele>410.28571428571433</ele><time>2026-05-03T08:52:12.608Z</time></trkpt><trkpt lat="49.951825" lon="16.8519012"><ele>412.85714285714283</ele><time>2026-05-03T08:52:43.695Z</time></trkpt><trkpt lat="49.9517515" lon="16.8517907"><ele>415.42857142857144</ele><time>2026-05-03T08:53:05.661Z</time></trkpt><trkpt lat="49.9517122" lon="16.8517138"><ele>418.0</ele><time>2026-05-03T08:53:06.598Z</time></trkpt><trkpt lat="49.9516935" lon="16.8516185"><ele>418.1428571428571</ele><time>2026-05-03T08:53:10.616Z</time></trkpt><trkpt lat="49.9516719" lon="16.8515127"><ele>418.2857142857143</ele><time>2026-05-03T08:53:18.639Z</time></trkpt><trkpt lat="49.9516264" lon="16.8514271"><ele>418.42857142857144</ele><time>2026-05-03T08:53:25.618Z</time></trkpt><trkpt lat="49.9515855" lon="16.851345"><ele>418.57142857142856</ele><time>2026-05-03T08:53:32.639Z</time></trkpt><trkpt lat="49.9515878" lon="16.8512414"><ele>418.7142857142857</ele><time>2026-05-03T08:53:40.636Z</time></trkpt><trkpt lat="49.9515859" lon="16.8511293"><ele>418.85714285714283</ele><time>2026-05-03T08:53:45.643Z</time></trkpt><trkpt lat="49.9515944" lon="16.8510258"><ele>419.0</ele><time>2026-05-03T08:53:51.639Z</time></trkpt><trkpt lat="49.9515732" lon="16.8509212"><ele>419.49999999999994</ele><time>2026-05-03T08:53:58.663Z</time></trkpt><trkpt lat="49.9515304" lon="16.8508418"><ele>420.0</ele><time>2026-05-03T08:54:12.632Z</time></trkpt><trkpt lat="49.9515442" lon="16.8507407"><ele>420.5</ele><time>2026-05-03T08:54:23.666Z</time></trkpt><trkpt lat="49.9514721" lon="16.8505686"><ele>421.0</ele><time>2026-05-03T08:54:30.63Z</time></trkpt><trkpt lat="49.9514583" lon="16.850465"><ele>421.49999999999994</ele><time>2026-05-03T08:54:36.656Z</time></trkpt><trkpt lat="49.9514514" lon="16.8503581"><ele>422.0</ele><time>2026-05-03T08:54:50.675Z</time></trkpt><trkpt lat="49.951451" lon="16.8502456"><ele>421.99999999999994</ele><time>2026-05-03T08:54:57.602Z</time></trkpt><trkpt lat="49.951421" lon="16.8501501"><ele>422.0</ele><time>2026-05-03T08:55:07.657Z</time></trkpt><trkpt lat="49.9514078" lon="16.8500541"><ele>422.0</ele><time>2026-05-03T08:55:10.615Z</time></trkpt><trkpt lat="49.9514031" lon="16.8499528"><ele>422.0</ele><time>2026-05-03T08:55:18.663Z</time></trkpt><trkpt lat="49.9513708" lon="16.8498556"><ele>421.99999999999994</ele><time>2026-05-03T08:55:30.649Z</time></trkpt><trkpt lat="49.9513294" lon="16.8496658"><ele>422.0</ele><time>2026-05-03T08:55:42.594Z</time></trkpt><trkpt lat="49.9512852" lon="16.8495923"><ele>423.14285714285717</ele><time>2026-05-03T08:55:51.663Z</time></trkpt><trkpt lat="49.9512544" lon="16.8494828"><ele>424.28571428571433</ele><time>2026-05-03T08:56:01.611Z</time></trkpt><trkpt lat="49.9512597" lon="16.8493775"><ele>425.42857142857144</ele><time>2026-05-03T08:56:04.656Z</time></trkpt><trkpt lat="49.951222" lon="16.8492815"><ele>426.57142857142856</ele><time>2026-05-03T08:56:10.666Z</time></trkpt><trkpt lat="49.9511731" lon="16.8492088"><ele>427.7142857142857</ele><time>2026-05-03T08:56:19.606Z</time></trkpt><trkpt lat="49.9511723" lon="16.8491073"><ele>428.85714285714283</ele><time>2026-05-03T08:56:31.67Z</time></trkpt><trkpt lat="49.9511727" lon="16.8489958"><ele>430.0</ele><time>2026-05-03T08:56:37.621Z</time></trkpt><trkpt lat="49.9510937" lon="16.8489314"><ele>432.4285714285714</ele><time>2026-05-03T08:56:45.676Z</time></trkpt><trkpt lat="49.9510563" lon="16.8488445"><ele>434.8571428571429</ele><time>2026-05-03T08:56:52.666Z</time></trkpt><trkpt lat="49.9510486" lon="16.8487349"><ele>437.2857142857143</ele><time>2026-05-03T08:57:02.666Z</time></trkpt><trkpt lat="49.9510557" lon="16.8486256"><ele>439.71428571428567</ele><time>2026-05-03T08:57:10.67Z</time></trkpt><trkpt lat="49.9510367" lon="16.8485201"><ele>442.1428571428571</ele><time>2026-05-03T08:57:17.67Z</time></trkpt><trkpt lat="49.9510277" lon="16.8484148"><ele>444.57142857142856</ele><time>2026-05-03T08:57:26.665Z</time></trkpt><trkpt lat="49.951019" lon="16.8483162"><ele>447.0</ele><time>2026-05-03T08:57:38.646Z</time></trkpt><trkpt lat="49.9510666" lon="16.8482314"><ele>448.1428571428571</ele><time>2026-05-03T08:57:47.677Z</time></trkpt><trkpt lat="49.9510394" lon="16.8481272"><ele>449.2857142857143</ele><time>2026-05-03T08:57:59.651Z</time></trkpt><trkpt lat="49.9510676" lon="16.8480218"><ele>450.42857142857144</ele><time>2026-05-03T08:58:11.648Z</time></trkpt><trkpt lat="49.9510646" lon="16.8479174"><ele>451.57142857142856</ele><time>2026-05-03T08:58:24.606Z</time></trkpt><trkpt lat="49.9510578" lon="16.8478127"><ele>452.7142857142857</ele><time>2026-05-03T08:58:33.609Z</time></trkpt><trkpt lat="49.951048" lon="16.8477052"><ele>453.85714285714283</ele><time>2026-05-03T08:58:42.629Z</time></trkpt><trkpt lat="49.9510239" lon="16.8476023"><ele>455.0</ele><time>2026-05-03T08:58:50.623Z</time></trkpt><trkpt lat="49.9509855" lon="16.847521"><ele>455.49999999999994</ele><time>2026-05-03T08:59:00.618Z</time></trkpt><trkpt lat="49.9509616" lon="16.8474198"><ele>456.0</ele><time>2026-05-03T08:59:07.643Z</time></trkpt><trkpt lat="49.9509247" lon="16.8473244"><ele>456.5</ele><time>2026-05-03T08:59:18.661Z</time></trkpt><trkpt lat="49.950922" lon="16.8472064"><ele>457.0</ele><time>2026-05-03T08:59:25.647Z</time></trkpt><trkpt lat="49.9508862" lon="16.8470823"><ele>457.49999999999994</ele><time>2026-05-03T08:59:37.667Z</time></trkpt><trkpt lat="49.9509143" lon="16.8469458"><ele>458.0</ele><time>2026-05-03T08:59:48.663Z</time></trkpt><trkpt lat="49.9509357" lon="16.846831"><ele>459.71428571428567</ele><time>2026-05-03T08:59:50.672Z</time></trkpt><trkpt lat="49.9509575" lon="16.8467303"><ele>461.42857142857144</ele><time>2026-05-03T08:59:56.683Z</time></trkpt><trkpt lat="49.9510052" lon="16.846664"><ele>463.1428571428571</ele><time>2026-05-03T09:00:02.663Z</time></trkpt><trkpt lat="49.9510248" lon="16.8465621"><ele>464.85714285714283</ele><time>2026-05-03T09:00:08.663Z</time></trkpt><trkpt lat="49.9510337" lon="16.846462"><ele>466.57142857142856</ele><time>2026-05-03T09:00:14.665Z</time></trkpt><trkpt lat="49.9510565" lon="16.8463602"><ele>468.2857142857143</ele><time>2026-05-03T09:00:23.681Z</time></trkpt><trkpt lat="49.951053" lon="16.8462549"><ele>470.0</ele><time>2026-05-03T09:00:29.623Z</time></trkpt><trkpt lat="49.9510228" lon="16.8461605"><ele>469.99999999999994</ele><time>2026-05-03T09:00:36.625Z</time></trkpt><trkpt lat="49.950968" lon="16.84609"><ele>470.0</ele><time>2026-05-03T09:00:47.659Z</time></trkpt><trkpt lat="49.9509624" lon="16.845965"><ele>470.0</ele><time>2026-05-03T09:00:53.684Z</time></trkpt><trkpt lat="49.9509805" lon="16.8458425"><ele>470.0</ele><time>2026-05-03T09:00:56.66Z</time></trkpt><trkpt lat="49.9509844" lon="16.8457349"><ele>469.99999999999994</ele><time>2026-05-03T09:01:08.63Z</time></trkpt><trkpt lat="49.9510538" lon="16.8456234"><ele>470.0</ele><time>2026-05-03T09:01:19.66Z</time></trkpt><trkpt lat="49.9511027" lon="16.8455203"><ele>471.2857142857143</ele><time>2026-05-03T09:01:21.666Z</time></trkpt><trkpt lat="49.9511364" lon="16.8454188"><ele>472.57142857142856</ele><time>2026-05-03T09:01:27.66Z</time></trkpt><trkpt lat="49.9511447" lon="16.8453181"><ele>473.85714285714283</ele><time>2026-05-03T09:01:35.681Z</time></trkpt><trkpt lat="49.9511146" lon="16.8452287"><ele>475.1428571428571</ele><time>2026-05-03T09:01:43.685Z</time></trkpt><trkpt lat="49.9511008" lon="16.8451266"><ele>476.42857142857144</ele><time>2026-05-03T09:01:51.666Z</time></trkpt><trkpt lat="49.9511264" lon="16.8450346"><ele>477.71428571428567</ele><time>2026-05-03T09:01:58.661Z</time></trkpt><trkpt lat="49.9511217" lon="16.8449347"><ele>479.0</ele><time>2026-05-03T09:02:08.646Z</time></trkpt><trkpt lat="49.9511706" lon="16.8447848"><ele>479.0</ele><time>2026-05-03T09:02:15.591Z</time></trkpt><trkpt lat="49.9511998" lon="16.8446891"><ele>479.0</ele><time>2026-05-03T09:02:20.669Z</time></trkpt><trkpt lat="49.9511882" lon="16.844586"><ele>479.0</ele><time>2026-05-03T09:02:31.669Z</time></trkpt><trkpt lat="49.9512008" lon="16.844489"><ele>479.0</ele><time>2026-05-03T09:02:36.653Z</time></trkpt><trkpt lat="49.9512226" lon="16.8443897"><ele>479.0</ele><time>2026-05-03T09:02:40.66Z</time></trkpt><trkpt lat="49.9512727" lon="16.8443289"><ele>479.0</ele><time>2026-05-03T09:02:48.475Z</time></trkpt><trkpt lat="49.951295" lon="16.8442041"><ele>479.0</ele><time>2026-05-03T09:02:50.345Z</time></trkpt><trkpt lat="49.9513289" lon="16.8441032"><ele>478.66666666666663</ele><time>2026-05-03T09:02:56.413Z</time></trkpt><trkpt lat="49.951381" lon="16.8440228"><ele>478.3333333333333</ele><time>2026-05-03T09:03:02.568Z</time></trkpt><trkpt lat="49.9514659" lon="16.8438579"><ele>478.0</ele><time>2026-05-03T09:03:17.49Z</time></trkpt><trkpt lat="49.9514807" lon="16.8437576"><ele>477.66666666666663</ele><time>2026-05-03T09:03:20.648Z</time></trkpt><trkpt lat="49.9515179" lon="16.843664"><ele>477.3333333333333</ele><time>2026-05-03T09:03:30.655Z</time></trkpt><trkpt lat="49.951567" lon="16.843551"><ele>477.0</ele><time>2026-05-03T09:03:44.666Z</time></trkpt><trkpt lat="49.951594" lon="16.8434598"><ele>477.0</ele><time>2026-05-03T09:03:46.645Z</time></trkpt><trkpt lat="49.9516229" lon="16.8433559"><ele>476.99999999999994</ele><time>2026-05-03T09:03:50.663Z</time></trkpt><trkpt lat="49.951641" lon="16.8432453"><ele>477.0</ele><time>2026-05-03T09:03:58.656Z</time></trkpt><trkpt lat="49.9516375" lon="16.8431334"><ele>477.0</ele><time>2026-05-03T09:04:03.628Z</time></trkpt><trkpt lat="49.951623" lon="16.8430209"><ele>476.99999999999994</ele><time>2026-05-03T09:04:09.645Z</time></trkpt><trkpt lat="49.9516193" lon="16.8429062"><ele>477.0</ele><time>2026-05-03T09:04:15.673Z</time></trkpt><trkpt lat="49.9516375" lon="16.8427991"><ele>477.0</ele><time>2026-05-03T09:04:26.649Z</time></trkpt><trkpt lat="49.9517038" lon="16.8427478"><ele>477.0</ele><time>2026-05-03T09:04:33.637Z</time></trkpt><trkpt lat="49.9517042" lon="16.8426452"><ele>476.99999999999994</ele><time>2026-05-03T09:04:37.662Z</time></trkpt><trkpt lat="49.9516669" lon="16.842552"><ele>477.0</ele><time>2026-05-03T09:04:39.667Z</time></trkpt><trkpt lat="49.951671" lon="16.842442"><ele>477.0</ele><time>2026-05-03T09:04:45.65Z</time></trkpt><trkpt lat="49.9516816" lon="16.8423334"><ele>476.99999999999994</ele><time>2026-05-03T09:04:52.671Z</time></trkpt><trkpt lat="49.9516824" lon="16.842216"><ele>477.0</ele><time>2026-05-03T09:05:01.653Z</time></trkpt><trkpt lat="49.9517033" lon="16.8421029"><ele>477.0</ele><time>2026-05-03T09:05:08.658Z</time></trkpt><trkpt lat="49.9516904" lon="16.8420007"><ele>478.8333333333333</ele><time>2026-05-03T09:05:15.651Z</time></trkpt><trkpt lat="49.9516996" lon="16.8418913"><ele>480.66666666666663</ele><time>2026-05-03T09:05:23.612Z</time></trkpt><trkpt lat="49.9517111" lon="16.841775"><ele>482.5</ele><time>2026-05-03T09:05:29.659Z</time></trkpt><trkpt lat="49.9516564" lon="16.841595"><ele>484.3333333333333</ele><time>2026-05-03T09:05:53.66Z</time></trkpt><trkpt lat="49.9516591" lon="16.8414957"><ele>486.16666666666663</ele><time>2026-05-03T09:05:59.653Z</time></trkpt><trkpt lat="49.9516602" lon="16.8413793"><ele>488.0</ele><time>2026-05-03T09:06:04.663Z</time></trkpt><trkpt lat="49.9516633" lon="16.8412738"><ele>489.1428571428571</ele><time>2026-05-03T09:06:10.673Z</time></trkpt><trkpt lat="49.9517022" lon="16.8411736"><ele>490.2857142857143</ele><time>2026-05-03T09:06:16.664Z</time></trkpt><trkpt lat="49.9517144" lon="16.8410701"><ele>491.42857142857144</ele><time>2026-05-03T09:06:23.652Z</time></trkpt><trkpt lat="49.9517735" lon="16.8410045"><ele>492.57142857142856</ele><time>2026-05-03T09:06:29.654Z</time></trkpt><trkpt lat="49.9518389" lon="16.8409792"><ele>493.7142857142858</ele><time>2026-05-03T09:06:35.651Z</time></trkpt><trkpt lat="49.951776" lon="16.8408596"><ele>494.8571428571429</ele><time>2026-05-03T09:06:36.67Z</time></trkpt><trkpt lat="49.9517765" lon="16.8407558"><ele>496.0</ele><time>2026-05-03T09:06:40.556Z</time></trkpt><trkpt lat="49.9518079" lon="16.840644"><ele>498.8571428571429</ele><time>2026-05-03T09:06:47.656Z</time></trkpt><trkpt lat="49.9518624" lon="16.8405741"><ele>501.7142857142858</ele><time>2026-05-03T09:06:51.648Z</time></trkpt><trkpt lat="49.9518825" lon="16.8404663"><ele>504.57142857142856</ele><time>2026-05-03T09:06:57.649Z</time></trkpt><trkpt lat="49.9518491" lon="16.8403808"><ele>507.42857142857144</ele><time>2026-05-03T09:07:01.651Z</time></trkpt><trkpt lat="49.9518415" lon="16.8402736"><ele>510.2857142857143</ele><time>2026-05-03T09:07:08.641Z</time></trkpt><trkpt lat="49.9518573" lon="16.8401768"><ele>513.1428571428571</ele><time>2026-05-03T09:07:19.662Z</time></trkpt><trkpt lat="49.9518304" lon="16.8400869"><ele>516.0</ele><time>2026-05-03T09:07:21.611Z</time></trkpt><trkpt lat="49.9518329" lon="16.8399781"><ele>515.9999999999999</ele><time>2026-05-03T09:07:25.617Z</time></trkpt><trkpt lat="49.9518689" lon="16.8398877"><ele>516.0</ele><time>2026-05-03T09:07:40.614Z</time></trkpt><trkpt lat="49.9518804" lon="16.8397826"><ele>516.0</ele><time>2026-05-03T09:07:47.646Z</time></trkpt><trkpt lat="49.9518733" lon="16.8396774"><ele>516.0</ele><time>2026-05-03T09:07:53.615Z</time></trkpt><trkpt lat="49.9518852" lon="16.8395731"><ele>516.0</ele><time>2026-05-03T09:08:00.633Z</time></trkpt><trkpt lat="49.9519252" lon="16.8394917"><ele>515.9999999999999</ele><time>2026-05-03T09:08:07.625Z</time></trkpt><trkpt lat="49.9519476" lon="16.839391"><ele>516.0</ele><time>2026-05-03T09:08:14.625Z</time></trkpt><trkpt lat="49.9519482" lon="16.8392879"><ele>515.5714285714286</ele><time>2026-05-03T09:08:20.629Z</time></trkpt><trkpt lat="49.951954" lon="16.8391794"><ele>515.1428571428571</ele><time>2026-05-03T09:08:27.613Z</time></trkpt><trkpt lat="49.9519591" lon="16.839075"><ele>514.7142857142858</ele><time>2026-05-03T09:08:32.617Z</time></trkpt><trkpt lat="49.9519907" lon="16.8389819"><ele>514.2857142857142</ele><time>2026-05-03T09:08:37.634Z</time></trkpt><trkpt lat="49.9519917" lon="16.8388786"><ele>513.8571428571429</ele><time>2026-05-03T09:08:47.595Z</time></trkpt><trkpt lat="49.9519689" lon="16.8387662"><ele>513.4285714285714</ele><time>2026-05-03T09:08:51.671Z</time></trkpt><trkpt lat="49.9519766" lon="16.838654"><ele>513.0</ele><time>2026-05-03T09:08:58.655Z</time></trkpt><trkpt lat="49.9519602" lon="16.8385522"><ele>513.7142857142858</ele><time>2026-05-03T09:09:05.595Z</time></trkpt><trkpt lat="49.9519277" lon="16.8384638"><ele>514.4285714285714</ele><time>2026-05-03T09:09:11.627Z</time></trkpt><trkpt lat="49.9519003" lon="16.8383753"><ele>515.1428571428571</ele><time>2026-05-03T09:09:18.642Z</time></trkpt><trkpt lat="49.9518617" lon="16.8382852"><ele>515.8571428571429</ele><time>2026-05-03T09:09:24.621Z</time></trkpt><trkpt lat="49.9518157" lon="16.8381953"><ele>516.5714285714286</ele><time>2026-05-03T09:09:31.623Z</time></trkpt><trkpt lat="49.9517664" lon="16.8381176"><ele>517.2857142857143</ele><time>2026-05-03T09:09:37.612Z</time></trkpt><trkpt lat="49.9517476" lon="16.8380034"><ele>518.0</ele><time>2026-05-03T09:09:43.643Z</time></trkpt><trkpt lat="49.9517345" lon="16.837907"><ele>518.0</ele><time>2026-05-03T09:09:49.622Z</time></trkpt><trkpt lat="49.9517301" lon="16.8378021"><ele>518.0</ele><time>2026-05-03T09:09:56.641Z</time></trkpt><trkpt lat="49.9516934" lon="16.837702"><ele>518.0</ele><time>2026-05-03T09:10:02.617Z</time></trkpt><trkpt lat="49.9517271" lon="16.8376192"><ele>518.0</ele><time>2026-05-03T09:10:18.617Z</time></trkpt><trkpt lat="49.9517299" lon="16.8375174"><ele>518.0</ele><time>2026-05-03T09:10:26.618Z</time></trkpt><trkpt lat="49.9517605" lon="16.8374221"><ele>518.0</ele><time>2026-05-03T09:10:35.619Z</time></trkpt><trkpt lat="49.9517887" lon="16.8373212"><ele>518.0</ele><time>2026-05-03T09:10:43.609Z</time></trkpt><trkpt lat="49.9518152" lon="16.8372307"><ele>518.8571428571429</ele><time>2026-05-03T09:10:50.633Z</time></trkpt><trkpt lat="49.9518694" lon="16.8371766"><ele>519.7142857142858</ele><time>2026-05-03T09:11:00.618Z</time></trkpt><trkpt lat="49.9519279" lon="16.8371293"><ele>520.5714285714286</ele><time>2026-05-03T09:11:11.631Z</time></trkpt><trkpt lat="49.951947" lon="16.8370274"><ele>521.4285714285714</ele><time>2026-05-03T09:11:22.596Z</time></trkpt><trkpt lat="49.9519351" lon="16.8369106"><ele>522.2857142857143</ele><time>2026-05-03T09:11:27.652Z</time></trkpt><trkpt lat="49.9519383" lon="16.8368001"><ele>523.1428571428571</ele><time>2026-05-03T09:11:35.662Z</time></trkpt><trkpt lat="49.9519528" lon="16.8366855"><ele>524.0</ele><time>2026-05-03T09:11:41.669Z</time></trkpt><trkpt lat="49.9519565" lon="16.8365796"><ele>524.6666666666666</ele><time>2026-05-03T09:11:47.656Z</time></trkpt><trkpt lat="49.9519678" lon="16.8364589"><ele>525.3333333333333</ele><time>2026-05-03T09:12:02.644Z</time></trkpt><trkpt lat="49.9519795" lon="16.8363299"><ele>526.0</ele><time>2026-05-03T09:12:07.697Z</time></trkpt><trkpt lat="49.9520274" lon="16.836234"><ele>526.6666666666666</ele><time>2026-05-03T09:12:16.64Z</time></trkpt><trkpt lat="49.9520238" lon="16.8361305"><ele>527.3333333333334</ele><time>2026-05-03T09:12:19.615Z</time></trkpt><trkpt lat="49.9520158" lon="16.8360071"><ele>528.0</ele><time>2026-05-03T09:12:24.635Z</time></trkpt><trkpt lat="49.9520301" lon="16.8359084"><ele>528.2857142857142</ele><time>2026-05-03T09:12:31.666Z</time></trkpt><trkpt lat="49.9520695" lon="16.8358179"><ele>528.5714285714286</ele><time>2026-05-03T09:12:37.634Z</time></trkpt><trkpt lat="49.9520992" lon="16.8357179"><ele>528.8571428571429</ele><time>2026-05-03T09:12:42.664Z</time></trkpt><trkpt lat="49.9521223" lon="16.8356154"><ele>529.1428571428571</ele><time>2026-05-03T09:12:48.673Z</time></trkpt><trkpt lat="49.9521405" lon="16.8355176"><ele>529.4285714285714</ele><time>2026-05-03T09:12:54.632Z</time></trkpt><trkpt lat="49.9521436" lon="16.8354037"><ele>529.7142857142857</ele><time>2026-05-03T09:13:01.674Z</time></trkpt><trkpt lat="49.9521511" lon="16.8353048"><ele>530.0</ele><time>2026-05-03T09:13:06.658Z</time></trkpt><trkpt lat="49.9521501" lon="16.8351869"><ele>529.6666666666666</ele><time>2026-05-03T09:13:15.683Z</time></trkpt><trkpt lat="49.9521756" lon="16.8350919"><ele>529.3333333333333</ele><time>2026-05-03T09:13:24.556Z</time></trkpt><trkpt lat="49.9522172" lon="16.8349946"><ele>529.0</ele><time>2026-05-03T09:13:29.674Z</time></trkpt><trkpt lat="49.9522684" lon="16.8349352"><ele>528.6666666666666</ele><time>2026-05-03T09:13:49.676Z</time></trkpt><trkpt lat="49.9523179" lon="16.8347114"><ele>528.3333333333334</ele><time>2026-05-03T09:13:52.663Z</time></trkpt><trkpt lat="49.9523665" lon="16.83463"><ele>528.0</ele><time>2026-05-03T09:13:59.624Z</time></trkpt><trkpt lat="49.952388" lon="16.8345307"><ele>528.0</ele><time>2026-05-03T09:14:07.676Z</time></trkpt><trkpt lat="49.9524204" lon="16.8344325"><ele>528.0</ele><time>2026-05-03T09:14:14.599Z</time></trkpt><trkpt lat="49.9524221" lon="16.8342745"><ele>528.0</ele><time>2026-05-03T09:14:32.646Z</time></trkpt><trkpt lat="49.9524446" lon="16.8341593"><ele>528.0</ele><time>2026-05-03T09:14:34.653Z</time></trkpt><trkpt lat="49.9524608" lon="16.8340594"><ele>528.0</ele><time>2026-05-03T09:14:44.652Z</time></trkpt><trkpt lat="49.9524957" lon="16.8339664"><ele>528.0</ele><time>2026-05-03T09:14:58.637Z</time></trkpt><trkpt lat="49.9525155" lon="16.8338704"><ele>531.5714285714286</ele><time>2026-05-03T09:15:06.652Z</time></trkpt><trkpt lat="49.9525476" lon="16.8337752"><ele>535.1428571428571</ele><time>2026-05-03T09:15:14.684Z</time></trkpt><trkpt lat="49.9525642" lon="16.8336618"><ele>538.7142857142858</ele><time>2026-05-03T09:15:23.675Z</time></trkpt><trkpt lat="49.9525635" lon="16.8335611"><ele>542.2857142857142</ele><time>2026-05-03T09:15:32.637Z</time></trkpt><trkpt lat="49.9525879" lon="16.8334648"><ele>545.8571428571429</ele><time>2026-05-03T09:15:38.664Z</time></trkpt><trkpt lat="49.9525989" lon="16.8333214"><ele>549.4285714285714</ele><time>2026-05-03T09:15:55.659Z</time></trkpt><trkpt lat="49.9526301" lon="16.8332278"><ele>553.0</ele><time>2026-05-03T09:16:00.677Z</time></trkpt><trkpt lat="49.9526699" lon="16.8331513"><ele>553.0</ele><time>2026-05-03T09:16:08.674Z</time></trkpt><trkpt lat="49.9527093" lon="16.8330638"><ele>553.0</ele><time>2026-05-03T09:16:17.694Z</time></trkpt><trkpt lat="49.9527578" lon="16.8329907"><ele>553.0</ele><time>2026-05-03T09:16:29.66Z</time></trkpt><trkpt lat="49.9527801" lon="16.8328902"><ele>553.0</ele><time>2026-05-03T09:16:48.669Z</time></trkpt><trkpt lat="49.9527951" lon="16.8327925"><ele>553.0</ele><time>2026-05-03T09:16:54.671Z</time></trkpt><trkpt lat="49.9528385" lon="16.8327158"><ele>553.0</ele><time>2026-05-03T09:17:01.676Z</time></trkpt><trkpt lat="49.9528765" lon="16.8326369"><ele>553.0</ele><time>2026-05-03T09:17:10.666Z</time></trkpt><trkpt lat="49.9529095" lon="16.8325436"><ele>552.8333333333334</ele><time>2026-05-03T09:17:23.655Z</time></trkpt><trkpt lat="49.9529875" lon="16.8323638"><ele>552.6666666666667</ele><time>2026-05-03T09:18:13.617Z</time></trkpt><trkpt lat="49.9530508" lon="16.8323574"><ele>552.5</ele><time>2026-05-03T09:18:31.666Z</time></trkpt><trkpt lat="49.9531256" lon="16.8323932"><ele>552.3333333333334</ele><time>2026-05-03T09:19:05.632Z</time></trkpt><trkpt lat="49.9531618" lon="16.832313"><ele>552.1666666666666</ele><time>2026-05-03T09:19:29.678Z</time></trkpt><trkpt lat="49.9532093" lon="16.8322476"><ele>552.0</ele><time>2026-05-03T09:20:10.699Z</time></trkpt><trkpt lat="49.9532394" lon="16.8321616"><ele>552.0</ele><time>2026-05-03T09:20:32.688Z</time></trkpt><trkpt lat="49.9532947" lon="16.8321098"><ele>552.0</ele><time>2026-05-03T09:20:44.679Z</time></trkpt><trkpt lat="49.9533851" lon="16.8320171"><ele>552.0</ele><time>2026-05-03T09:21:23.674Z</time></trkpt><trkpt lat="49.953458" lon="16.8319877"><ele>552.0</ele><time>2026-05-03T09:21:40.681Z</time></trkpt><trkpt lat="49.953521" lon="16.8319554"><ele>552.0</ele><time>2026-05-03T09:21:50.66Z</time></trkpt><trkpt lat="49.9535848" lon="16.8319491"><ele>552.0</ele><time>2026-05-03T09:21:59.623Z</time></trkpt><trkpt lat="49.9536475" lon="16.8319336"><ele>552.0</ele><time>2026-05-03T09:22:06.631Z</time></trkpt><trkpt lat="49.9537106" lon="16.8319468"><ele>553.8571428571429</ele><time>2026-05-03T09:22:12.635Z</time></trkpt><trkpt lat="49.9537769" lon="16.83196"><ele>555.7142857142858</ele><time>2026-05-03T09:22:21.642Z</time></trkpt><trkpt lat="49.9538314" lon="16.8320175"><ele>557.5714285714286</ele><time>2026-05-03T09:22:30.617Z</time></trkpt><trkpt lat="49.953898" lon="16.8320259"><ele>559.4285714285714</ele><time>2026-05-03T09:22:41.635Z</time></trkpt><trkpt lat="49.9539645" lon="16.8320343"><ele>561.2857142857142</ele><time>2026-05-03T09:22:50.625Z</time></trkpt><trkpt lat="49.9540295" lon="16.8320458"><ele>563.1428571428571</ele><time>2026-05-03T09:22:57.599Z</time></trkpt><trkpt lat="49.9540978" lon="16.8320149"><ele>565.0</ele><time>2026-05-03T09:23:12.637Z</time></trkpt><trkpt lat="49.9541321" lon="16.8319294"><ele>564.9999999999999</ele><time>2026-05-03T09:23:21.629Z</time></trkpt><trkpt lat="49.9541617" lon="16.8318414"><ele>565.0</ele><time>2026-05-03T09:23:28.623Z</time></trkpt><trkpt lat="49.9541834" lon="16.83174"><ele>565.0</ele><time>2026-05-03T09:23:35.616Z</time></trkpt><trkpt lat="49.9541904" lon="16.8316344"><ele>565.0</ele><time>2026-05-03T09:23:45.627Z</time></trkpt><trkpt lat="49.9541907" lon="16.8315209"><ele>565.0</ele><time>2026-05-03T09:23:57.648Z</time></trkpt><trkpt lat="49.9542016" lon="16.8314072"><ele>564.9999999999999</ele><time>2026-05-03T09:24:05.62Z</time></trkpt><trkpt lat="49.9542475" lon="16.8313238"><ele>565.0</ele><time>2026-05-03T09:24:13.688Z</time></trkpt><trkpt lat="49.9542609" lon="16.8312259"><ele>562.0</ele><time>2026-05-03T09:24:36.687Z</time></trkpt><trkpt lat="49.9542902" lon="16.8311357"><ele>559.0</ele><time>2026-05-03T09:24:43.694Z</time></trkpt><trkpt lat="49.9542987" lon="16.8309643"><ele>556.0</ele><time>2026-05-03T09:24:53.663Z</time></trkpt><trkpt lat="49.9543208" lon="16.8308546"><ele>553.0</ele><time>2026-05-03T09:25:00.683Z</time></trkpt><trkpt lat="49.9543202" lon="16.8307398"><ele>550.0</ele><time>2026-05-03T09:25:08.656Z</time></trkpt><trkpt lat="49.9543237" lon="16.8306372"><ele>547.0</ele><time>2026-05-03T09:25:14.651Z</time></trkpt><trkpt lat="49.9543329" lon="16.8304963"><ele>547.0</ele><time>2026-05-03T09:25:30.686Z</time></trkpt><trkpt lat="49.9543374" lon="16.8303913"><ele>547.0</ele><time>2026-05-03T09:25:33.673Z</time></trkpt><trkpt lat="49.9543233" lon="16.8302948"><ele>547.0</ele><time>2026-05-03T09:25:39.203Z</time></trkpt><trkpt lat="49.9543314" lon="16.8301914"><ele>547.0</ele><time>2026-05-03T09:25:47.664Z</time></trkpt><trkpt lat="49.9543341" lon="16.8300762"><ele>547.0</ele><time>2026-05-03T09:25:52.657Z</time></trkpt><trkpt lat="49.9543662" lon="16.8299818"><ele>547.0</ele><time>2026-05-03T09:25:59.665Z</time></trkpt><trkpt lat="49.9543435" lon="16.8298887"><ele>547.0</ele><time>2026-05-03T09:26:06.677Z</time></trkpt><trkpt lat="49.9543801" lon="16.8298035"><ele>547.4285714285714</ele><time>2026-05-03T09:26:11.686Z</time></trkpt><trkpt lat="49.9544282" lon="16.8297299"><ele>547.8571428571428</ele><time>2026-05-03T09:26:17.669Z</time></trkpt><trkpt lat="49.9544402" lon="16.8296161"><ele>548.2857142857142</ele><time>2026-05-03T09:26:23.595Z</time></trkpt><trkpt lat="49.9544191" lon="16.8295044"><ele>548.7142857142857</ele><time>2026-05-03T09:26:40.633Z</time></trkpt><trkpt lat="49.9543711" lon="16.8294239"><ele>549.1428571428571</ele><time>2026-05-03T09:26:47.628Z</time></trkpt><trkpt lat="49.9542941" lon="16.8293734"><ele>549.5714285714286</ele><time>2026-05-03T09:27:13.622Z</time></trkpt><trkpt lat="49.9542309" lon="16.8293108"><ele>550.0</ele><time>2026-05-03T09:27:18.613Z</time></trkpt><trkpt lat="49.9541797" lon="16.8292358"><ele>551.2857142857143</ele><time>2026-05-03T09:27:24.662Z</time></trkpt><trkpt lat="49.9541194" lon="16.8291818"><ele>552.5714285714286</ele><time>2026-05-03T09:27:30.675Z</time></trkpt><trkpt lat="49.9540625" lon="16.8291381"><ele>553.8571428571429</ele><time>2026-05-03T09:27:36.64Z</time></trkpt><trkpt lat="49.9540089" lon="16.8290864"><ele>555.1428571428571</ele><time>2026-05-03T09:27:42.619Z</time></trkpt><trkpt lat="49.9539548" lon="16.8290348"><ele>556.4285714285714</ele><time>2026-05-03T09:27:48.622Z</time></trkpt><trkpt lat="49.9539066" lon="16.8289715"><ele>557.7142857142858</ele><time>2026-05-03T09:27:54.642Z</time></trkpt><trkpt lat="49.9538427" lon="16.8289146"><ele>559.0</ele><time>2026-05-03T09:28:13.614Z</time></trkpt><trkpt lat="49.9537892" lon="16.8288559"><ele>559.0</ele><time>2026-05-03T09:28:18.642Z</time></trkpt><trkpt lat="49.95373" lon="16.8287935"><ele>559.0</ele><time>2026-05-03T09:28:24.64Z</time></trkpt><trkpt lat="49.9536752" lon="16.8287279"><ele>559.0</ele><time>2026-05-03T09:28:31.643Z</time></trkpt><trkpt lat="49.9536252" lon="16.8286653"><ele>559.0</ele><time>2026-05-03T09:28:37.637Z</time></trkpt><trkpt lat="49.9535737" lon="16.828589"><ele>559.0</ele><time>2026-05-03T09:28:44.65Z</time></trkpt><trkpt lat="49.9535261" lon="16.828524"><ele>559.0</ele><time>2026-05-03T09:28:49.638Z</time></trkpt><trkpt lat="49.9534792" lon="16.8284356"><ele>559.0</ele><time>2026-05-03T09:28:57.645Z</time></trkpt><trkpt lat="49.9534428" lon="16.8283369"><ele>559.2857142857143</ele><time>2026-05-03T09:29:04.635Z</time></trkpt><trkpt lat="49.9533944" lon="16.8282676"><ele>559.5714285714287</ele><time>2026-05-03T09:29:10.637Z</time></trkpt><trkpt lat="49.9533426" lon="16.8282066"><ele>559.8571428571429</ele><time>2026-05-03T09:29:20.635Z</time></trkpt><trkpt lat="49.9533071" lon="16.8281104"><ele>560.1428571428571</ele><time>2026-05-03T09:29:26.634Z</time></trkpt><trkpt lat="49.9532616" lon="16.8280362"><ele>560.4285714285713</ele><time>2026-05-03T09:29:32.626Z</time></trkpt><trkpt lat="49.9532081" lon="16.8279691"><ele>560.7142857142857</ele><time>2026-05-03T09:29:37.644Z</time></trkpt><trkpt lat="49.9531604" lon="16.8278866"><ele>561.0</ele><time>2026-05-03T09:29:43.565Z</time></trkpt><trkpt lat="49.9531112" lon="16.8278188"><ele>559.0</ele><time>2026-05-03T09:29:49.636Z</time></trkpt><trkpt lat="49.9530431" lon="16.8278008"><ele>557.0</ele><time>2026-05-03T09:29:56.628Z</time></trkpt><trkpt lat="49.9529734" lon="16.8278047"><ele>555.0</ele><time>2026-05-03T09:30:02.655Z</time></trkpt><trkpt lat="49.9529011" lon="16.8278326"><ele>553.0</ele><time>2026-05-03T09:30:08.648Z</time></trkpt><trkpt lat="49.9528382" lon="16.8278478"><ele>551.0</ele><time>2026-05-03T09:30:13.647Z</time></trkpt><trkpt lat="49.9527848" lon="16.8279075"><ele>549.0</ele><time>2026-05-03T09:30:19.634Z</time></trkpt><trkpt lat="49.9527258" lon="16.8279501"><ele>547.0</ele><time>2026-05-03T09:30:24.651Z</time></trkpt><trkpt lat="49.9526633" lon="16.8279819"><ele>547.0</ele><time>2026-05-03T09:30:30.646Z</time></trkpt><trkpt lat="49.9526151" lon="16.8280564"><ele>547.0</ele><time>2026-05-03T09:30:36.679Z</time></trkpt><trkpt lat="49.9525468" lon="16.8280653"><ele>547.0</ele><time>2026-05-03T09:30:41.68Z</time></trkpt><trkpt lat="49.9524824" lon="16.8281148"><ele>547.0</ele><time>2026-05-03T09:30:47.648Z</time></trkpt><trkpt lat="49.9524288" lon="16.8281796"><ele>547.0</ele><time>2026-05-03T09:30:52.667Z</time></trkpt><trkpt lat="49.9523598" lon="16.8281836"><ele>547.0</ele><time>2026-05-03T09:30:57.683Z</time></trkpt><trkpt lat="49.9523031" lon="16.8282439"><ele>547.0</ele><time>2026-05-03T09:31:01.679Z</time></trkpt><trkpt lat="49.9522422" lon="16.8282921"><ele>546.6666666666667</ele><time>2026-05-03T09:31:09.655Z</time></trkpt><trkpt lat="49.9521764" lon="16.8282964"><ele>546.3333333333334</ele><time>2026-05-03T09:31:12.639Z</time></trkpt><trkpt lat="49.9521048" lon="16.8282851"><ele>546.0</ele><time>2026-05-03T09:31:17.602Z</time></trkpt><trkpt lat="49.9520283" lon="16.8281909"><ele>545.6666666666666</ele><time>2026-05-03T09:31:27.683Z</time></trkpt><trkpt lat="49.9519664" lon="16.828152"><ele>545.3333333333333</ele><time>2026-05-03T09:31:29.66Z</time></trkpt><trkpt lat="49.9519119" lon="16.8280721"><ele>545.0</ele><time>2026-05-03T09:31:37.621Z</time></trkpt><trkpt lat="49.9518288" lon="16.8279706"><ele>545.0</ele><time>2026-05-03T09:31:46.343Z</time></trkpt><trkpt lat="49.9517987" lon="16.8278819"><ele>545.0</ele><time>2026-05-03T09:31:49.68Z</time></trkpt><trkpt lat="49.9517288" lon="16.8278058"><ele>545.0</ele><time>2026-05-03T09:31:59.628Z</time></trkpt><trkpt lat="49.9516789" lon="16.8277324"><ele>545.0</ele><time>2026-05-03T09:32:02.617Z</time></trkpt><trkpt lat="49.9516333" lon="16.8276637"><ele>545.0</ele><time>2026-05-03T09:32:08.64Z</time></trkpt><trkpt lat="49.9515924" lon="16.8275692"><ele>545.0</ele><time>2026-05-03T09:32:15.686Z</time></trkpt><trkpt lat="49.9515475" lon="16.8274984"><ele>545.0</ele><time>2026-05-03T09:32:22.635Z</time></trkpt><trkpt lat="49.9515066" lon="16.8274229"><ele>544.6666666666666</ele><time>2026-05-03T09:32:28.63Z</time></trkpt><trkpt lat="49.9514528" lon="16.8273597"><ele>544.3333333333333</ele><time>2026-05-03T09:32:34.664Z</time></trkpt><trkpt lat="49.9513876" lon="16.8272731"><ele>544.0</ele><time>2026-05-03T09:32:52.671Z</time></trkpt><trkpt lat="49.9513624" lon="16.827179"><ele>543.6666666666666</ele><time>2026-05-03T09:32:53.584Z</time></trkpt><trkpt lat="49.9513043" lon="16.8271381"><ele>543.3333333333334</ele><time>2026-05-03T09:32:58.655Z</time></trkpt><trkpt lat="49.9512438" lon="16.8271725"><ele>543.0</ele><time>2026-05-03T09:33:10.686Z</time></trkpt><trkpt lat="49.9512048" lon="16.8270162"><ele>543.0</ele><time>2026-05-03T09:33:12.674Z</time></trkpt><trkpt lat="49.9511631" lon="16.8269389"><ele>543.0</ele><time>2026-05-03T09:33:16.655Z</time></trkpt><trkpt lat="49.9511367" lon="16.8268465"><ele>543.0</ele><time>2026-05-03T09:33:24.662Z</time></trkpt><trkpt lat="49.9511437" lon="16.826744"><ele>543.0</ele><time>2026-05-03T09:33:31.61Z</time></trkpt><trkpt lat="49.9510671" lon="16.8267425"><ele>543.0</ele><time>2026-05-03T09:33:33.638Z</time></trkpt><trkpt lat="49.9509898" lon="16.8267271"><ele>543.0</ele><time>2026-05-03T09:33:37.668Z</time></trkpt><trkpt lat="49.9509404" lon="16.8266434"><ele>543.0</ele><time>2026-05-03T09:33:43.653Z</time></trkpt><trkpt lat="49.9509038" lon="16.8265522"><ele>544.6666666666666</ele><time>2026-05-03T09:33:49.621Z</time></trkpt><trkpt lat="49.950846" lon="16.8265043"><ele>546.3333333333334</ele><time>2026-05-03T09:33:57.679Z</time></trkpt><trkpt lat="49.9507863" lon="16.8264651"><ele>548.0</ele><time>2026-05-03T09:34:03.657Z</time></trkpt><trkpt lat="49.9507176" lon="16.826457"><ele>549.6666666666667</ele><time>2026-05-03T09:34:09.682Z</time></trkpt><trkpt lat="49.9506109" lon="16.8263665"><ele>551.3333333333334</ele><time>2026-05-03T09:34:20.671Z</time></trkpt><trkpt lat="49.9505517" lon="16.8263121"><ele>553.0</ele><time>2026-05-03T09:34:24.657Z</time></trkpt><trkpt lat="49.950492" lon="16.8262801"><ele>553.0</ele><time>2026-05-03T09:34:31.666Z</time></trkpt><trkpt lat="49.9504318" lon="16.8262348"><ele>553.0</ele><time>2026-05-03T09:34:37.679Z</time></trkpt><trkpt lat="49.9503692" lon="16.8262077"><ele>553.0</ele><time>2026-05-03T09:34:44.674Z</time></trkpt><trkpt lat="49.9503052" lon="16.8261887"><ele>553.0</ele><time>2026-05-03T09:34:48.663Z</time></trkpt><trkpt lat="49.9502444" lon="16.8262341"><ele>553.0</ele><time>2026-05-03T09:34:57.674Z</time></trkpt><trkpt lat="49.9501871" lon="16.8261872"><ele>553.0</ele><time>2026-05-03T09:35:00.667Z</time></trkpt><trkpt lat="49.950129" lon="16.8261447"><ele>553.0</ele><time>2026-05-03T09:35:04.695Z</time></trkpt><trkpt lat="49.9500956" lon="16.8260598"><ele>553.5</ele><time>2026-05-03T09:35:09.672Z</time></trkpt><trkpt lat="49.950026" lon="16.8259915"><ele>554.0</ele><time>2026-05-03T09:35:17.686Z</time></trkpt><trkpt lat="49.9499605" lon="16.8259379"><ele>554.5</ele><time>2026-05-03T09:35:21.663Z</time></trkpt><trkpt lat="49.9498971" lon="16.8259034"><ele>555.0</ele><time>2026-05-03T09:35:28.599Z</time></trkpt><trkpt lat="49.9498535" lon="16.8257951"><ele>555.5</ele><time>2026-05-03T09:35:36.63Z</time></trkpt><trkpt lat="49.9497887" lon="16.8257154"><ele>556.0</ele><time>2026-05-03T09:35:39.538Z</time></trkpt><trkpt lat="49.9497442" lon="16.8256354"><ele>556.0</ele><time>2026-05-03T09:35:45.629Z</time></trkpt><trkpt lat="49.9496913" lon="16.8255518"><ele>556.0</ele><time>2026-05-03T09:35:52.658Z</time></trkpt><trkpt lat="49.9496489" lon="16.8254724"><ele>556.0</ele><time>2026-05-03T09:35:58.622Z</time></trkpt><trkpt lat="49.9495964" lon="16.8254027"><ele>556.0</ele><time>2026-05-03T09:36:04.682Z</time></trkpt><trkpt lat="49.9495517" lon="16.8253186"><ele>556.0</ele><time>2026-05-03T09:36:12.672Z</time></trkpt><trkpt lat="49.949479" lon="16.8252422"><ele>556.0</ele><time>2026-05-03T09:36:17.666Z</time></trkpt><trkpt lat="49.9494258" lon="16.8251634"><ele>556.0</ele><time>2026-05-03T09:36:22.648Z</time></trkpt><trkpt lat="49.9493768" lon="16.8250875"><ele>555.8571428571429</ele><time>2026-05-03T09:36:28.564Z</time></trkpt><trkpt lat="49.9493338" lon="16.8250108"><ele>555.7142857142858</ele><time>2026-05-03T09:36:34.358Z</time></trkpt><trkpt lat="49.9492878" lon="16.8249309"><ele>555.5714285714287</ele><time>2026-05-03T09:36:40.658Z</time></trkpt><trkpt lat="49.9492331" lon="16.8248807"><ele>555.4285714285714</ele><time>2026-05-03T09:36:46.613Z</time></trkpt><trkpt lat="49.9491905" lon="16.8248002"><ele>555.2857142857143</ele><time>2026-05-03T09:36:56.005Z</time></trkpt><trkpt lat="49.9491334" lon="16.8247384"><ele>555.1428571428572</ele><time>2026-05-03T09:37:02.55Z</time></trkpt><trkpt lat="49.9490858" lon="16.8246676"><ele>555.0</ele><time>2026-05-03T09:37:06.264Z</time></trkpt><trkpt lat="49.9490071" lon="16.8245867"><ele>555.0</ele><time>2026-05-03T09:37:17.529Z</time></trkpt><trkpt lat="49.9489798" lon="16.8244933"><ele>555.0</ele><time>2026-05-03T09:37:19.427Z</time></trkpt><trkpt lat="49.9489335" lon="16.824418"><ele>555.0</ele><time>2026-05-03T09:37:23.59Z</time></trkpt><trkpt lat="49.9488707" lon="16.8243478"><ele>555.0</ele><time>2026-05-03T09:37:33.074Z</time></trkpt><trkpt lat="49.9488088" lon="16.824283"><ele>555.0</ele><time>2026-05-03T09:37:35.62Z</time></trkpt><trkpt lat="49.9487238" lon="16.8241694"><ele>555.0</ele><time>2026-05-03T09:37:45.618Z</time></trkpt><trkpt lat="49.9486945" lon="16.8240811"><ele>554.7142857142858</ele><time>2026-05-03T09:37:50.431Z</time></trkpt><trkpt lat="49.9486362" lon="16.8240395"><ele>554.4285714285714</ele><time>2026-05-03T09:37:56.107Z</time></trkpt><trkpt lat="49.948578" lon="16.823992"><ele>554.1428571428571</ele><time>2026-05-03T09:38:00.391Z</time></trkpt><trkpt lat="49.9485578" lon="16.823888"><ele>553.8571428571429</ele><time>2026-05-03T09:38:04.642Z</time></trkpt><trkpt lat="49.9485093" lon="16.8238207"><ele>553.5714285714286</ele><time>2026-05-03T09:38:09.685Z</time></trkpt><trkpt lat="49.9484395" lon="16.8237683"><ele>553.2857142857143</ele><time>2026-05-03T09:38:17.67Z</time></trkpt><trkpt lat="49.9484024" lon="16.8236758"><ele>553.0</ele><time>2026-05-03T09:38:23.637Z</time></trkpt><trkpt lat="49.9483356" lon="16.8236156"><ele>551.3333333333334</ele><time>2026-05-03T09:38:30.669Z</time></trkpt><trkpt lat="49.9482749" lon="16.8235403"><ele>549.6666666666667</ele><time>2026-05-03T09:38:35.647Z</time></trkpt><trkpt lat="49.9482191" lon="16.8234568"><ele>548.0</ele><time>2026-05-03T09:38:43.67Z</time></trkpt><trkpt lat="49.9481548" lon="16.8233941"><ele>546.3333333333334</ele><time>2026-05-03T09:38:47.387Z</time></trkpt><trkpt lat="49.9480873" lon="16.8233839"><ele>544.6666666666666</ele><time>2026-05-03T09:38:52.612Z</time></trkpt><trkpt lat="49.9480748" lon="16.8232856"><ele>543.0</ele><time>2026-05-03T09:38:55.646Z</time></trkpt><trkpt lat="49.9480104" lon="16.8231871"><ele>542.1428571428571</ele><time>2026-05-03T09:39:05.61Z</time></trkpt><trkpt lat="49.9479842" lon="16.8230954"><ele>541.2857142857142</ele><time>2026-05-03T09:39:09.644Z</time></trkpt><trkpt lat="49.9479271" lon="16.823042"><ele>540.4285714285713</ele><time>2026-05-03T09:39:16.513Z</time></trkpt><trkpt lat="49.9479436" lon="16.8229262"><ele>539.5714285714286</ele><time>2026-05-03T09:39:21.593Z</time></trkpt><trkpt lat="49.9480083" lon="16.8228592"><ele>538.7142857142857</ele><time>2026-05-03T09:39:26.49Z</time></trkpt><trkpt lat="49.9480356" lon="16.8227614"><ele>537.8571428571428</ele><time>2026-05-03T09:39:31.696Z</time></trkpt><trkpt lat="49.9480696" lon="16.8226574"><ele>537.0</ele><time>2026-05-03T09:39:37.675Z</time></trkpt><trkpt lat="49.9480975" lon="16.8225636"><ele>536.5</ele><time>2026-05-03T09:39:43.328Z</time></trkpt><trkpt lat="49.9481364" lon="16.8224698"><ele>536.0</ele><time>2026-05-03T09:39:49.534Z</time></trkpt><trkpt lat="49.948194" lon="16.8223378"><ele>535.5</ele><time>2026-05-03T09:40:04.172Z</time></trkpt><trkpt lat="49.9482536" lon="16.8222567"><ele>535.0</ele><time>2026-05-03T09:40:07.66Z</time></trkpt><trkpt lat="49.9482606" lon="16.822154"><ele>534.5</ele><time>2026-05-03T09:40:16.49Z</time></trkpt><trkpt lat="49.9483292" lon="16.8220876"><ele>534.0</ele><time>2026-05-03T09:40:19.348Z</time></trkpt><trkpt lat="49.9483569" lon="16.8219985"><ele>534.6666666666666</ele><time>2026-05-03T09:40:22.671Z</time></trkpt><trkpt lat="49.9483916" lon="16.8218922"><ele>535.3333333333334</ele><time>2026-05-03T09:40:29.407Z</time></trkpt><trkpt lat="49.9484311" lon="16.8218141"><ele>536.0</ele><time>2026-05-03T09:40:34.267Z</time></trkpt><trkpt lat="49.9484359" lon="16.8217117"><ele>536.6666666666667</ele><time>2026-05-03T09:40:40.007Z</time></trkpt><trkpt lat="49.9484859" lon="16.8216331"><ele>537.3333333333334</ele><time>2026-05-03T09:40:45.89Z</time></trkpt><trkpt lat="49.9485286" lon="16.8214988"><ele>538.0</ele><time>2026-05-03T09:40:55.172Z</time></trkpt><trkpt lat="49.9485562" lon="16.8213885"><ele>538.0</ele><time>2026-05-03T09:41:00.351Z</time></trkpt><trkpt lat="49.9486067" lon="16.8213236"><ele>538.0</ele><time>2026-05-03T09:41:10.67Z</time></trkpt><trkpt lat="49.9486564" lon="16.8211522"><ele>538.0</ele><time>2026-05-03T09:41:15.665Z</time></trkpt><trkpt lat="49.9486931" lon="16.8210493"><ele>538.0</ele><time>2026-05-03T09:41:18.621Z</time></trkpt><trkpt lat="49.9486922" lon="16.8209284"><ele>538.0</ele><time>2026-05-03T09:41:26.68Z</time></trkpt><trkpt lat="49.9487727" lon="16.8208334"><ele>538.0</ele><time>2026-05-03T09:41:33.709Z</time></trkpt><trkpt lat="49.9488145" lon="16.8207464"><ele>537.0</ele><time>2026-05-03T09:41:37.681Z</time></trkpt><trkpt lat="49.9488112" lon="16.82064"><ele>536.0</ele><time>2026-05-03T09:41:44.691Z</time></trkpt><trkpt lat="49.9488809" lon="16.8204932"><ele>535.0</ele><time>2026-05-03T09:41:55.681Z</time></trkpt><trkpt lat="49.9489393" lon="16.8204123"><ele>534.0</ele><time>2026-05-03T09:41:57.682Z</time></trkpt><trkpt lat="49.9489745" lon="16.8203214"><ele>533.0</ele><time>2026-05-03T09:42:10.649Z</time></trkpt><trkpt lat="49.9490295" lon="16.8201732"><ele>532.0</ele><time>2026-05-03T09:42:15.672Z</time></trkpt><trkpt lat="49.9490557" lon="16.8200733"><ele>531.1428571428571</ele><time>2026-05-03T09:42:18.49Z</time></trkpt><trkpt lat="49.9490973" lon="16.8199886"><ele>530.2857142857142</ele><time>2026-05-03T09:42:24.554Z</time></trkpt><trkpt lat="49.9491232" lon="16.8198912"><ele>529.4285714285714</ele><time>2026-05-03T09:42:28.661Z</time></trkpt><trkpt lat="49.9491685" lon="16.8198118"><ele>528.5714285714286</ele><time>2026-05-03T09:42:32.631Z</time></trkpt><trkpt lat="49.9491684" lon="16.8197033"><ele>527.7142857142857</ele><time>2026-05-03T09:42:38.587Z</time></trkpt><trkpt lat="49.9492374" lon="16.8195862"><ele>526.8571428571429</ele><time>2026-05-03T09:42:47.314Z</time></trkpt><trkpt lat="49.9492806" lon="16.819514"><ele>526.0</ele><time>2026-05-03T09:42:51.678Z</time></trkpt><trkpt lat="49.9493013" lon="16.8194078"><ele>526.6666666666667</ele><time>2026-05-03T09:42:59.666Z</time></trkpt><trkpt lat="49.9493433" lon="16.819282"><ele>527.3333333333334</ele><time>2026-05-03T09:43:05.671Z</time></trkpt><trkpt lat="49.9493966" lon="16.8192052"><ele>528.0</ele><time>2026-05-03T09:43:09.585Z</time></trkpt><trkpt lat="49.9494427" lon="16.819134"><ele>528.6666666666666</ele><time>2026-05-03T09:43:14.691Z</time></trkpt><trkpt lat="49.9495076" lon="16.8191147"><ele>529.3333333333333</ele><time>2026-05-03T09:43:20.629Z</time></trkpt><trkpt lat="49.9494772" lon="16.8189378"><ele>530.0</ele><time>2026-05-03T09:43:24.449Z</time></trkpt><trkpt lat="49.9495142" lon="16.818856"><ele>529.9999999999999</ele><time>2026-05-03T09:43:29.249Z</time></trkpt><trkpt lat="49.9495242" lon="16.8187532"><ele>530.0</ele><time>2026-05-03T09:43:33.663Z</time></trkpt><trkpt lat="49.9495686" lon="16.8186725"><ele>530.0</ele><time>2026-05-03T09:43:40.191Z</time></trkpt><trkpt lat="49.9495572" lon="16.8185761"><ele>530.0</ele><time>2026-05-03T09:43:45.67Z</time></trkpt><trkpt lat="49.9496" lon="16.8184271"><ele>530.0</ele><time>2026-05-03T09:43:55.684Z</time></trkpt><trkpt lat="49.9496596" lon="16.8183688"><ele>529.9999999999999</ele><time>2026-05-03T09:43:57.658Z</time></trkpt><trkpt lat="49.9496911" lon="16.8182808"><ele>530.0</ele><time>2026-05-03T09:44:02.665Z</time></trkpt><trkpt lat="49.9497209" lon="16.8181622"><ele>529.1666666666666</ele><time>2026-05-03T09:44:11.548Z</time></trkpt><trkpt lat="49.9497695" lon="16.8180559"><ele>528.3333333333333</ele><time>2026-05-03T09:44:16.676Z</time></trkpt><trkpt lat="49.9497908" lon="16.817956"><ele>527.5</ele><time>2026-05-03T09:44:22.657Z</time></trkpt><trkpt lat="49.9498509" lon="16.817891"><ele>526.6666666666666</ele><time>2026-05-03T09:44:31.666Z</time></trkpt><trkpt lat="49.9498745" lon="16.817766"><ele>525.8333333333334</ele><time>2026-05-03T09:44:37.59Z</time></trkpt><trkpt lat="49.9498978" lon="16.8176492"><ele>525.0</ele><time>2026-05-03T09:44:41.538Z</time></trkpt><trkpt lat="49.9499544" lon="16.817597"><ele>524.3333333333334</ele><time>2026-05-03T09:44:45.369Z</time></trkpt><trkpt lat="49.9499312" lon="16.8174877"><ele>523.6666666666666</ele><time>2026-05-03T09:44:54.656Z</time></trkpt><trkpt lat="49.9499915" lon="16.8174203"><ele>523.0</ele><time>2026-05-03T09:44:56.571Z</time></trkpt><trkpt lat="49.9500385" lon="16.8173479"><ele>522.3333333333333</ele><time>2026-05-03T09:44:59.434Z</time></trkpt><trkpt lat="49.9500931" lon="16.8171731"><ele>521.6666666666666</ele><time>2026-05-03T09:45:11.683Z</time></trkpt><trkpt lat="49.9501273" lon="16.8170902"><ele>521.0</ele><time>2026-05-03T09:45:14.624Z</time></trkpt><trkpt lat="49.9501462" lon="16.8169709"><ele>521.8571428571429</ele><time>2026-05-03T09:45:20.643Z</time></trkpt><trkpt lat="49.9501697" lon="16.8168674"><ele>522.7142857142858</ele><time>2026-05-03T09:45:26.612Z</time></trkpt><trkpt lat="49.9502155" lon="16.8167882"><ele>523.5714285714287</ele><time>2026-05-03T09:45:31.498Z</time></trkpt><trkpt lat="49.9502446" lon="16.8166998"><ele>524.4285714285714</ele><time>2026-05-03T09:45:37.652Z</time></trkpt><trkpt lat="49.9502831" lon="16.8166057"><ele>525.2857142857143</ele><time>2026-05-03T09:45:44.62Z</time></trkpt><trkpt lat="49.9503307" lon="16.8165411"><ele>526.1428571428572</ele><time>2026-05-03T09:46:36.611Z</time></trkpt><trkpt lat="49.9503726" lon="16.8164643"><ele>527.0</ele><time>2026-05-03T09:46:41.62Z</time></trkpt><trkpt lat="49.9503942" lon="16.8163574"><ele>527.0000000000001</ele><time>2026-05-03T09:46:48.616Z</time></trkpt><trkpt lat="49.9504487" lon="16.8163062"><ele>527.0</ele><time>2026-05-03T09:46:52.601Z</time></trkpt><trkpt lat="49.9504967" lon="16.816241"><ele>527.0</ele><time>2026-05-03T09:46:57.621Z</time></trkpt><trkpt lat="49.9505449" lon="16.8161768"><ele>527.0</ele><time>2026-05-03T09:47:03.617Z</time></trkpt><trkpt lat="49.9505952" lon="16.8160978"><ele>527.0</ele><time>2026-05-03T09:47:09.601Z</time></trkpt><trkpt lat="49.9506292" lon="16.8160083"><ele>527.0000000000001</ele><time>2026-05-03T09:47:15.61Z</time></trkpt><trkpt lat="49.9506682" lon="16.8159214"><ele>527.0</ele><time>2026-05-03T09:47:21.618Z</time></trkpt><trkpt lat="49.9507031" lon="16.8158355"><ele>526.4285714285714</ele><time>2026-05-03T09:47:27.616Z</time></trkpt><trkpt lat="49.9507485" lon="16.8157503"><ele>525.8571428571429</ele><time>2026-05-03T09:47:34.622Z</time></trkpt><trkpt lat="49.9507945" lon="16.8156622"><ele>525.2857142857142</ele><time>2026-05-03T09:47:41.54Z</time></trkpt><trkpt lat="49.95084" lon="16.8155873"><ele>524.7142857142858</ele><time>2026-05-03T09:47:47.502Z</time></trkpt><trkpt lat="49.950902" lon="16.8155175"><ele>524.1428571428571</ele><time>2026-05-03T09:47:54.663Z</time></trkpt><trkpt lat="49.9509437" lon="16.8154305"><ele>523.5714285714286</ele><time>2026-05-03T09:48:00.639Z</time></trkpt><trkpt lat="49.9509821" lon="16.8153495"><ele>523.0</ele><time>2026-05-03T09:48:06.63Z</time></trkpt><trkpt lat="49.9510189" lon="16.815269"><ele>522.9999999999999</ele><time>2026-05-03T09:48:19.625Z</time></trkpt><trkpt lat="49.9510781" lon="16.8152058"><ele>523.0</ele><time>2026-05-03T09:48:26.521Z</time></trkpt><trkpt lat="49.9511166" lon="16.8151056"><ele>523.0</ele><time>2026-05-03T09:48:32.623Z</time></trkpt><trkpt lat="49.951148" lon="16.8149974"><ele>523.0</ele><time>2026-05-03T09:48:39.544Z</time></trkpt><trkpt lat="49.9512058" lon="16.8149439"><ele>523.0</ele><time>2026-05-03T09:48:43.44Z</time></trkpt><trkpt lat="49.9512644" lon="16.814898"><ele>522.9999999999999</ele><time>2026-05-03T09:48:50.629Z</time></trkpt><trkpt lat="49.9513166" lon="16.8148305"><ele>523.0</ele><time>2026-05-03T09:48:57.62Z</time></trkpt><trkpt lat="49.9513587" lon="16.8147413"><ele>522.1428571428571</ele><time>2026-05-03T09:49:03.64Z</time></trkpt><trkpt lat="49.9513908" lon="16.8146405"><ele>521.2857142857142</ele><time>2026-05-03T09:49:09.641Z</time></trkpt><trkpt lat="49.9514469" lon="16.8145958"><ele>520.4285714285714</ele><time>2026-05-03T09:49:14.64Z</time></trkpt><trkpt lat="49.951506" lon="16.8145284"><ele>519.5714285714286</ele><time>2026-05-03T09:49:21.427Z</time></trkpt><trkpt lat="49.9515468" lon="16.8144204"><ele>518.7142857142858</ele><time>2026-05-03T09:49:26.65Z</time></trkpt><trkpt lat="49.9515956" lon="16.8143568"><ele>517.8571428571429</ele><time>2026-05-03T09:49:35.121Z</time></trkpt><trkpt lat="49.9516022" lon="16.8142586"><ele>517.0</ele><time>2026-05-03T09:49:39.404Z</time></trkpt><trkpt lat="49.9516705" lon="16.8142183"><ele>517.7142857142858</ele><time>2026-05-03T09:49:43.623Z</time></trkpt><trkpt lat="49.9517255" lon="16.8141522"><ele>518.4285714285714</ele><time>2026-05-03T09:49:48.602Z</time></trkpt><trkpt lat="49.9517793" lon="16.814069"><ele>519.1428571428571</ele><time>2026-05-03T09:49:54.52Z</time></trkpt><trkpt lat="49.9518084" lon="16.813968"><ele>519.8571428571429</ele><time>2026-05-03T09:49:59.328Z</time></trkpt><trkpt lat="49.9518368" lon="16.8138695"><ele>520.5714285714286</ele><time>2026-05-03T09:50:04.646Z</time></trkpt><trkpt lat="49.9518782" lon="16.8137804"><ele>521.2857142857143</ele><time>2026-05-03T09:50:10.431Z</time></trkpt><trkpt lat="49.9519286" lon="16.8136933"><ele>522.0</ele><time>2026-05-03T09:50:16.172Z</time></trkpt><trkpt lat="49.9519724" lon="16.8136022"><ele>522.0</ele><time>2026-05-03T09:50:22.074Z</time></trkpt><trkpt lat="49.9520068" lon="16.8135196"><ele>522.0</ele><time>2026-05-03T09:50:27.387Z</time></trkpt><trkpt lat="49.9520546" lon="16.8134301"><ele>522.0</ele><time>2026-05-03T09:50:34.589Z</time></trkpt><trkpt lat="49.9521165" lon="16.8133722"><ele>522.0</ele><time>2026-05-03T09:50:40.408Z</time></trkpt><trkpt lat="49.9521587" lon="16.8132846"><ele>522.0</ele><time>2026-05-03T09:50:46.307Z</time></trkpt><trkpt lat="49.9521925" lon="16.8131919"><ele>522.0</ele><time>2026-05-03T09:50:52.148Z</time></trkpt><trkpt lat="49.9522201" lon="16.813099"><ele>522.0</ele><time>2026-05-03T09:50:58.137Z</time></trkpt><trkpt lat="49.9522544" lon="16.8130068"><ele>521.4285714285714</ele><time>2026-05-03T09:51:03.951Z</time></trkpt><trkpt lat="49.9522755" lon="16.8129071"><ele>520.8571428571429</ele><time>2026-05-03T09:51:10.139Z</time></trkpt><trkpt lat="49.9523111" lon="16.8128048"><ele>520.2857142857142</ele><time>2026-05-03T09:51:16.603Z</time></trkpt><trkpt lat="49.9523433" lon="16.8127192"><ele>519.7142857142858</ele><time>2026-05-03T09:51:24.612Z</time></trkpt><trkpt lat="49.9523434" lon="16.8126137"><ele>519.1428571428571</ele><time>2026-05-03T09:51:28.605Z</time></trkpt><trkpt lat="49.9523972" lon="16.8125441"><ele>518.5714285714286</ele><time>2026-05-03T09:51:36.311Z</time></trkpt><trkpt lat="49.9524116" lon="16.8124405"><ele>518.0</ele><time>2026-05-03T09:51:41.66Z</time></trkpt><trkpt lat="49.9524073" lon="16.8123262"><ele>516.75</ele><time>2026-05-03T09:51:47.639Z</time></trkpt><trkpt lat="49.9524209" lon="16.8122073"><ele>515.5</ele><time>2026-05-03T09:51:52.647Z</time></trkpt><trkpt lat="49.95236" lon="16.8122416"><ele>514.25</ele><time>2026-05-03T09:52:06.626Z</time></trkpt><trkpt lat="49.9524922" lon="16.8120391"><ele>513.0</ele><time>2026-05-03T09:52:10.657Z</time></trkpt><trkpt lat="49.9525785" lon="16.8118895"><ele>514.5714285714287</ele><time>2026-05-03T09:52:11.634Z</time></trkpt><trkpt lat="49.9526123" lon="16.8118052"><ele>516.1428571428571</ele><time>2026-05-03T09:52:15.489Z</time></trkpt><trkpt lat="49.9526704" lon="16.8117603"><ele>517.7142857142858</ele><time>2026-05-03T09:52:23.552Z</time></trkpt><trkpt lat="49.9527399" lon="16.8117654"><ele>519.2857142857143</ele><time>2026-05-03T09:52:29.446Z</time></trkpt><trkpt lat="49.9527954" lon="16.8117126"><ele>520.8571428571429</ele><time>2026-05-03T09:52:36.668Z</time></trkpt><trkpt lat="49.9528528" lon="16.8117623"><ele>522.4285714285714</ele><time>2026-05-03T09:52:40.668Z</time></trkpt><trkpt lat="49.952916" lon="16.8117544"><ele>524.0</ele><time>2026-05-03T09:52:46.676Z</time></trkpt><trkpt lat="49.9529811" lon="16.8117361"><ele>524.0</ele><time>2026-05-03T09:52:52.614Z</time></trkpt><trkpt lat="49.9530445" lon="16.8116914"><ele>524.0</ele><time>2026-05-03T09:52:57.671Z</time></trkpt><trkpt lat="49.9531207" lon="16.8116708"><ele>524.0</ele><time>2026-05-03T09:53:02.648Z</time></trkpt><trkpt lat="49.9531885" lon="16.811712"><ele>524.0</ele><time>2026-05-03T09:53:06.669Z</time></trkpt><trkpt lat="49.9532558" lon="16.8116833"><ele>524.0</ele><time>2026-05-03T09:53:16.664Z</time></trkpt><trkpt lat="49.9533907" lon="16.8116234"><ele>524.0</ele><time>2026-05-03T09:53:31.551Z</time></trkpt><trkpt lat="49.9534523" lon="16.8115624"><ele>525.6666666666666</ele><time>2026-05-03T09:53:32.529Z</time></trkpt><trkpt lat="49.9534919" lon="16.8114759"><ele>527.3333333333333</ele><time>2026-05-03T09:53:38.526Z</time></trkpt><trkpt lat="49.9536067" lon="16.8114367"><ele>529.0</ele><time>2026-05-03T09:53:48.664Z</time></trkpt><trkpt lat="49.953677" lon="16.8113733"><ele>530.6666666666666</ele><time>2026-05-03T09:53:53.658Z</time></trkpt><trkpt lat="49.9537516" lon="16.8113819"><ele>532.3333333333334</ele><time>2026-05-03T09:54:00.527Z</time></trkpt><trkpt lat="49.9538003" lon="16.8113008"><ele>534.0</ele><time>2026-05-03T09:54:07.656Z</time></trkpt><trkpt lat="49.9538682" lon="16.8112572"><ele>534.0000000000001</ele><time>2026-05-03T09:54:12.683Z</time></trkpt><trkpt lat="49.9539205" lon="16.8111905"><ele>534.0</ele><time>2026-05-03T09:54:18.689Z</time></trkpt><trkpt lat="49.9539896" lon="16.8112161"><ele>534.0</ele><time>2026-05-03T09:54:25.663Z</time></trkpt><trkpt lat="49.9540432" lon="16.8111324"><ele>534.0</ele><time>2026-05-03T09:54:29.672Z</time></trkpt><trkpt lat="49.9541091" lon="16.8110818"><ele>534.0</ele><time>2026-05-03T09:54:36.675Z</time></trkpt><trkpt lat="49.9541509" lon="16.8110052"><ele>534.0000000000001</ele><time>2026-05-03T09:54:40.678Z</time></trkpt><trkpt lat="49.9542198" lon="16.8110062"><ele>534.0</ele><time>2026-05-03T09:54:47.682Z</time></trkpt><trkpt lat="49.9542857" lon="16.8109841"><ele>534.5714285714287</ele><time>2026-05-03T09:54:51.6Z</time></trkpt><trkpt lat="49.9543531" lon="16.8109507"><ele>535.1428571428571</ele><time>2026-05-03T09:54:59.679Z</time></trkpt><trkpt lat="49.9544267" lon="16.8109379"><ele>535.7142857142858</ele><time>2026-05-03T09:55:08.687Z</time></trkpt><trkpt lat="49.954491" lon="16.810913"><ele>536.2857142857143</ele><time>2026-05-03T09:55:14.595Z</time></trkpt><trkpt lat="49.9545611" lon="16.810918"><ele>536.8571428571429</ele><time>2026-05-03T09:55:22.59Z</time></trkpt><trkpt lat="49.9546279" lon="16.8108735"><ele>537.4285714285714</ele><time>2026-05-03T09:55:27.664Z</time></trkpt><trkpt lat="49.9546956" lon="16.8108742"><ele>538.0</ele><time>2026-05-03T09:55:33.657Z</time></trkpt><trkpt lat="49.9547635" lon="16.81087"><ele>538.0</ele><time>2026-05-03T09:55:43.664Z</time></trkpt><trkpt lat="49.9548319" lon="16.8108096"><ele>538.0</ele><time>2026-05-03T09:55:48.661Z</time></trkpt><trkpt lat="49.9548998" lon="16.8107529"><ele>538.0</ele><time>2026-05-03T09:55:52.65Z</time></trkpt><trkpt lat="49.9549669" lon="16.8107221"><ele>538.0</ele><time>2026-05-03T09:56:00.591Z</time></trkpt><trkpt lat="49.955024" lon="16.8106628"><ele>538.0</ele><time>2026-05-03T09:56:05.671Z</time></trkpt><trkpt lat="49.9550871" lon="16.8106138"><ele>538.0</ele><time>2026-05-03T09:56:12.64Z</time></trkpt><trkpt lat="49.9550794" lon="16.810506"><ele>538.0</ele><time>2026-05-03T09:56:29.673Z</time></trkpt><trkpt lat="49.9551488" lon="16.8104537"><ele>540.5</ele><time>2026-05-03T09:56:34.662Z</time></trkpt><trkpt lat="49.9552159" lon="16.8104454"><ele>543.0</ele><time>2026-05-03T09:56:36.663Z</time></trkpt><trkpt lat="49.9552706" lon="16.8103704"><ele>545.5</ele><time>2026-05-03T09:56:44.66Z</time></trkpt><trkpt lat="49.9553341" lon="16.8103451"><ele>548.0</ele><time>2026-05-03T09:56:53.678Z</time></trkpt><trkpt lat="49.9553637" lon="16.8101834"><ele>550.5</ele><time>2026-05-03T09:57:10.679Z</time></trkpt><trkpt lat="49.9554207" lon="16.8101125"><ele>553.0</ele><time>2026-05-03T09:57:12.688Z</time></trkpt><trkpt lat="49.9554547" lon="16.810016"><ele>553.0</ele><time>2026-05-03T09:57:19.681Z</time></trkpt><trkpt lat="49.9554235" lon="16.8099128"><ele>553.0</ele><time>2026-05-03T09:57:35.685Z</time></trkpt><trkpt lat="49.9554416" lon="16.8098095"><ele>553.0</ele><time>2026-05-03T09:57:43.675Z</time></trkpt><trkpt lat="49.9554985" lon="16.8097306"><ele>553.0</ele><time>2026-05-03T09:57:48.671Z</time></trkpt><trkpt lat="49.9555408" lon="16.809631"><ele>553.0</ele><time>2026-05-03T09:57:54.662Z</time></trkpt><trkpt lat="49.9555923" lon="16.8095457"><ele>553.0</ele><time>2026-05-03T09:57:59.671Z</time></trkpt><trkpt lat="49.955632" lon="16.8096263"><ele>553.0</ele><time>2026-05-03T09:58:25.662Z</time></trkpt><trkpt lat="49.9555637" lon="16.809613"><ele>553.0</ele><time>2026-05-03T09:58:31.632Z</time></trkpt><trkpt lat="49.9556929" lon="16.8094054"><ele>553.0</ele><time>2026-05-03T09:58:54.695Z</time></trkpt><trkpt lat="49.9557302" lon="16.8093177"><ele>553.0</ele><time>2026-05-03T09:59:02.604Z</time></trkpt><trkpt lat="49.9559516" lon="16.8088168"><ele>555.4285714285714</ele><time>2026-05-03T09:59:10.684Z</time></trkpt><trkpt lat="49.9560122" lon="16.8086911"><ele>557.8571428571429</ele><time>2026-05-03T09:59:11.654Z</time></trkpt><trkpt lat="49.9560577" lon="16.8086031"><ele>560.2857142857142</ele><time>2026-05-03T09:59:16.573Z</time></trkpt><trkpt lat="49.9560965" lon="16.8085253"><ele>562.7142857142858</ele><time>2026-05-03T09:59:23.694Z</time></trkpt><trkpt lat="49.9561529" lon="16.8084623"><ele>565.1428571428571</ele><time>2026-05-03T09:59:31.688Z</time></trkpt><trkpt lat="49.9561661" lon="16.8083548"><ele>567.5714285714286</ele><time>2026-05-03T09:59:38.655Z</time></trkpt><trkpt lat="49.9562074" lon="16.8082706"><ele>570.0</ele><time>2026-05-03T09:59:44.67Z</time></trkpt><trkpt lat="49.956265" lon="16.808201"><ele>570.1428571428571</ele><time>2026-05-03T09:59:49.665Z</time></trkpt><trkpt lat="49.9563029" lon="16.808108"><ele>570.2857142857143</ele><time>2026-05-03T09:59:58.668Z</time></trkpt><trkpt lat="49.9563749" lon="16.8080674"><ele>570.4285714285714</ele><time>2026-05-03T10:00:08.692Z</time></trkpt><trkpt lat="49.9563498" lon="16.8079744"><ele>570.5714285714286</ele><time>2026-05-03T10:00:14.711Z</time></trkpt><trkpt lat="49.9564139" lon="16.8078531"><ele>570.7142857142857</ele><time>2026-05-03T10:00:21.68Z</time></trkpt><trkpt lat="49.9564646" lon="16.8077904"><ele>570.8571428571429</ele><time>2026-05-03T10:00:24.606Z</time></trkpt><trkpt lat="49.9565132" lon="16.8077265"><ele>571.0</ele><time>2026-05-03T10:00:29.604Z</time></trkpt><trkpt lat="49.9565541" lon="16.807647"><ele>571.4285714285714</ele><time>2026-05-03T10:00:37.617Z</time></trkpt><trkpt lat="49.9565997" lon="16.8075706"><ele>571.8571428571429</ele><time>2026-05-03T10:00:45.509Z</time></trkpt><trkpt lat="49.9566089" lon="16.8074684"><ele>572.2857142857142</ele><time>2026-05-03T10:00:49.659Z</time></trkpt><trkpt lat="49.9566488" lon="16.8073865"><ele>572.7142857142858</ele><time>2026-05-03T10:00:55.606Z</time></trkpt><trkpt lat="49.9565815" lon="16.8073959"><ele>573.1428571428571</ele><time>2026-05-03T10:01:02.406Z</time></trkpt><trkpt lat="49.9565316" lon="16.8073347"><ele>573.5714285714286</ele><time>2026-05-03T10:01:10.328Z</time></trkpt><trkpt lat="49.9564766" lon="16.8074682"><ele>574.0</ele><time>2026-05-03T10:01:13.484Z</time></trkpt><trkpt lat="49.9564079" lon="16.8074543"><ele>574.0</ele><time>2026-05-03T10:01:19.671Z</time></trkpt><trkpt lat="49.956377" lon="16.8075409"><ele>574.0</ele><time>2026-05-03T10:01:29.686Z</time></trkpt><trkpt lat="49.9563683" lon="16.8076427"><ele>574.0</ele><time>2026-05-03T10:01:43.368Z</time></trkpt><trkpt lat="49.9563122" lon="16.8078027"><ele>574.0</ele><time>2026-05-03T10:02:37.544Z</time></trkpt><trkpt lat="49.9563698" lon="16.8074356"><ele>574.0</ele><time>2026-05-03T10:04:22.359Z</time></trkpt><trkpt lat="49.9561199" lon="16.8074518"><ele>574.0</ele><time>2026-05-03T10:04:32.654Z</time></trkpt><trkpt lat="49.9560339" lon="16.8074857"><ele>574.0</ele><time>2026-05-03T10:04:48.639Z</time></trkpt><trkpt lat="49.9562559" lon="16.8074787"><ele>574.0</ele><time>2026-05-03T10:05:22.623Z</time></trkpt><trkpt lat="49.9562374" lon="16.8073819"><ele>574.0</ele><time>2026-05-03T10:07:53.656Z</time></trkpt><trkpt lat="49.9563031" lon="16.8073561"><ele>574.0</ele><time>2026-05-03T10:08:40.669Z</time></trkpt><trkpt lat="49.9563667" lon="16.8073249"><ele>574.0</ele><time>2026-05-03T10:08:53.615Z</time></trkpt><trkpt lat="49.9563012" lon="16.8073394"><ele>574.0</ele><time>2026-05-03T10:11:14.659Z</time></trkpt><trkpt lat="49.9562382" lon="16.807343"><ele>574.0</ele><time>2026-05-03T10:11:50.661Z</time></trkpt><trkpt lat="49.9561606" lon="16.8073218"><ele>574.0</ele><time>2026-05-03T10:12:00.621Z</time></trkpt><trkpt lat="49.9561079" lon="16.8072406"><ele>574.0</ele><time>2026-05-03T10:12:35.654Z</time></trkpt><trkpt lat="49.9560193" lon="16.80722"><ele>574.0</ele><time>2026-05-03T10:12:38.662Z</time></trkpt><trkpt lat="49.9559593" lon="16.8072514"><ele>574.0</ele><time>2026-05-03T10:12:41.64Z</time></trkpt><trkpt lat="49.9561618" lon="16.8072566"><ele>574.0</ele><time>2026-05-03T10:12:59.626Z</time></trkpt><trkpt lat="49.9562267" lon="16.8072985"><ele>574.0</ele><time>2026-05-03T10:13:05.651Z</time></trkpt><trkpt lat="49.9562938" lon="16.8073281"><ele>574.0</ele><time>2026-05-03T10:13:09.636Z</time></trkpt><trkpt lat="49.9562335" lon="16.8074395"><ele>574.0</ele><time>2026-05-03T10:14:37.094Z</time></trkpt><trkpt lat="49.9563101" lon="16.8074816"><ele>574.0</ele><time>2026-05-03T10:15:03.076Z</time></trkpt><trkpt lat="49.9564233" lon="16.8074465"><ele>574.0</ele><time>2026-05-03T10:16:36.094Z</time></trkpt><trkpt lat="49.9565514" lon="16.8074337"><ele>574.0</ele><time>2026-05-03T10:17:00.086Z</time></trkpt><trkpt lat="49.9564731" lon="16.8074171"><ele>574.0</ele><time>2026-05-03T10:17:19.098Z</time></trkpt><trkpt lat="49.9563913" lon="16.8073689"><ele>574.0</ele><time>2026-05-03T10:17:38.105Z</time></trkpt><trkpt lat="49.9565543" lon="16.8073616"><ele>574.0</ele><time>2026-05-03T10:20:32.102Z</time></trkpt><trkpt lat="49.9565505" lon="16.8072582"><ele>574.0</ele><time>2026-05-03T10:22:28.075Z</time></trkpt><trkpt lat="49.9563678" lon="16.8074339"><ele>574.0</ele><time>2026-05-03T10:29:48.226Z</time></trkpt><trkpt lat="49.9561921" lon="16.8076938"><ele>574.0</ele><time>2026-05-03T10:29:54.083Z</time></trkpt><trkpt lat="49.9563052" lon="16.8075015"><ele>574.0</ele><time>2026-05-03T10:29:58.08Z</time></trkpt><trkpt lat="49.9563994" lon="16.8074333"><ele>574.0</ele><time>2026-05-03T10:30:00.038Z</time></trkpt><trkpt lat="49.956486" lon="16.807407"><ele>574.0</ele><time>2026-05-03T10:30:06.052Z</time></trkpt><trkpt lat="49.9564242" lon="16.8072291"><ele>574.0</ele><time>2026-05-03T10:31:13.054Z</time></trkpt><trkpt lat="49.9563613" lon="16.8072235"><ele>574.0</ele><time>2026-05-03T10:31:16.079Z</time></trkpt><trkpt lat="49.9562964" lon="16.8072692"><ele>574.0</ele><time>2026-05-03T10:31:32.033Z</time></trkpt><trkpt lat="49.9562611" lon="16.8073678"><ele>574.0</ele><time>2026-05-03T10:31:36.056Z</time></trkpt><trkpt lat="49.9562041" lon="16.8074787"><ele>574.0</ele><time>2026-05-03T10:31:40.076Z</time></trkpt><trkpt lat="49.9561404" lon="16.8075089"><ele>574.0</ele><time>2026-05-03T10:31:41.036Z</time></trkpt><trkpt lat="49.956001" lon="16.8075998"><ele>574.0</ele><time>2026-05-03T10:31:43.064Z</time></trkpt><trkpt lat="49.9563679" lon="16.807434"><ele>562.0</ele><time>2026-05-03T10:31:51.602Z</time></trkpt><trkpt lat="49.9558075" lon="16.8079854"><ele>565.0</ele><time>2026-05-03T10:32:03.016Z</time></trkpt><trkpt lat="49.956084" lon="16.8077447"><ele>568.0</ele><time>2026-05-03T10:32:22.063Z</time></trkpt><trkpt lat="49.9561465" lon="16.8076733"><ele>571.0</ele><time>2026-05-03T10:32:24.021Z</time></trkpt><trkpt lat="49.9562248" lon="16.8076073"><ele>571.6</ele><time>2026-05-03T10:32:26.069Z</time></trkpt><trkpt lat="49.9562276" lon="16.8074914"><ele>572.2</ele><time>2026-05-03T10:35:42.023Z</time></trkpt><trkpt lat="49.9561621" lon="16.8075719"><ele>572.8</ele><time>2026-05-03T10:35:45.042Z</time></trkpt><trkpt lat="49.9560849" lon="16.8076058"><ele>573.4</ele><time>2026-05-03T10:35:46.049Z</time></trkpt><trkpt lat="49.955942" lon="16.8076452"><ele>574.0</ele><time>2026-05-03T10:35:48.025Z</time></trkpt><trkpt lat="49.9558764" lon="16.8076229"><ele>574.0</ele><time>2026-05-03T10:35:49.031Z</time></trkpt><trkpt lat="49.9558044" lon="16.807629"><ele>574.0</ele><time>2026-05-03T10:35:50.029Z</time></trkpt><trkpt lat="49.9557412" lon="16.8076139"><ele>574.0</ele><time>2026-05-03T10:35:51.037Z</time></trkpt><trkpt lat="49.9556248" lon="16.8075756"><ele>574.0</ele><time>2026-05-03T10:35:54.032Z</time></trkpt><trkpt lat="49.9556574" lon="16.8074906"><ele>574.0</ele><time>2026-05-03T10:36:07.031Z</time></trkpt><trkpt lat="49.9557789" lon="16.807436"><ele>574.0</ele><time>2026-05-03T10:36:11.053Z</time></trkpt><trkpt lat="49.955916" lon="16.8074264"><ele>574.0</ele><time>2026-05-03T10:36:14.024Z</time></trkpt><trkpt lat="49.9560175" lon="16.8074201"><ele>574.0</ele><time>2026-05-03T10:36:17.025Z</time></trkpt><trkpt lat="49.9560993" lon="16.807402"><ele>574.0</ele><time>2026-05-03T10:36:22.049Z</time></trkpt><trkpt lat="49.9562783" lon="16.8073928"><ele>574.0</ele><time>2026-05-03T10:47:53.06Z</time></trkpt><trkpt lat="49.956343" lon="16.8074214"><ele>574.0</ele><time>2026-05-03T10:47:57.074Z</time></trkpt><trkpt lat="49.9564019" lon="16.8074637"><ele>574.0</ele><time>2026-05-03T10:48:02.104Z</time></trkpt><trkpt lat="49.956358" lon="16.8075346"><ele>574.0</ele><time>2026-05-03T11:57:09.124Z</time></trkpt><trkpt lat="49.9560839" lon="16.8072734"><ele>574.0</ele><time>2026-05-03T11:59:46.117Z</time></trkpt><trkpt lat="49.9561901" lon="16.807272"><ele>574.0</ele><time>2026-05-03T12:00:05.097Z</time></trkpt><trkpt lat="49.9562513" lon="16.8073616"><ele>574.0</ele><time>2026-05-03T12:00:21.112Z</time></trkpt><trkpt lat="49.9563025" lon="16.8074306"><ele>574.0</ele><time>2026-05-03T12:00:24.111Z</time></trkpt><trkpt lat="49.9563725" lon="16.8074172"><ele>574.0</ele><time>2026-05-03T12:00:29.117Z</time></trkpt><trkpt lat="49.9564299" lon="16.8074598"><ele>574.0</ele><time>2026-05-03T12:00:43.109Z</time></trkpt><trkpt lat="49.9563992" lon="16.8076408"><ele>574.0</ele><time>2026-05-03T13:12:42.066Z</time></trkpt><trkpt lat="49.9564109" lon="16.8075442"><ele>574.0</ele><time>2026-05-03T13:12:53.109Z</time></trkpt><trkpt lat="49.956435" lon="16.8074476"><ele>574.0</ele><time>2026-05-03T13:13:08.121Z</time></trkpt><trkpt lat="49.9564991" lon="16.8074343"><ele>574.0</ele><time>2026-05-03T13:13:19.079Z</time></trkpt><trkpt lat="49.9565631" lon="16.8074022"><ele>574.0</ele><time>2026-05-03T13:13:26.064Z</time></trkpt><trkpt lat="49.9566253" lon="16.8073626"><ele>574.0</ele><time>2026-05-03T13:13:34.073Z</time></trkpt><trkpt lat="49.956746" lon="16.80728"><ele>574.0</ele><time>2026-05-03T13:13:53.102Z</time></trkpt><trkpt lat="49.9567989" lon="16.8072168"><ele>575.4285714285714</ele><time>2026-05-03T13:14:01.091Z</time></trkpt><trkpt lat="49.9568568" lon="16.8071573"><ele>576.8571428571429</ele><time>2026-05-03T13:14:09.102Z</time></trkpt><trkpt lat="49.9569139" lon="16.8071115"><ele>578.2857142857142</ele><time>2026-05-03T13:14:19.091Z</time></trkpt><trkpt lat="49.9569562" lon="16.8070296"><ele>579.7142857142858</ele><time>2026-05-03T13:14:25.108Z</time></trkpt><trkpt lat="49.9570185" lon="16.8069781"><ele>581.1428571428571</ele><time>2026-05-03T13:14:35.1Z</time></trkpt><trkpt lat="49.9570575" lon="16.8070697"><ele>582.5714285714286</ele><time>2026-05-03T13:14:46.113Z</time></trkpt><trkpt lat="49.9570458" lon="16.8071666"><ele>584.0</ele><time>2026-05-03T13:14:56.11Z</time></trkpt><trkpt lat="49.9571291" lon="16.8072493"><ele>584.0</ele><time>2026-05-03T13:15:03.079Z</time></trkpt><trkpt lat="49.9571901" lon="16.8073006"><ele>584.0</ele><time>2026-05-03T13:15:11.081Z</time></trkpt><trkpt lat="49.9572281" lon="16.8074185"><ele>584.0</ele><time>2026-05-03T13:15:21.126Z</time></trkpt><trkpt lat="49.9572593" lon="16.8075115"><ele>584.0</ele><time>2026-05-03T13:15:28.085Z</time></trkpt><trkpt lat="49.9572796" lon="16.8076106"><ele>584.0</ele><time>2026-05-03T13:15:56.102Z</time></trkpt><trkpt lat="49.9572813" lon="16.8077121"><ele>584.0</ele><time>2026-05-03T13:16:17.067Z</time></trkpt><trkpt lat="49.9572823" lon="16.8078175"><ele>584.0</ele><time>2026-05-03T13:16:28.119Z</time></trkpt><trkpt lat="49.9572831" lon="16.8079235"><ele>584.2857142857142</ele><time>2026-05-03T13:16:35.11Z</time></trkpt><trkpt lat="49.9572866" lon="16.8080372"><ele>584.5714285714286</ele><time>2026-05-03T13:16:43.11Z</time></trkpt><trkpt lat="49.9572704" lon="16.8081445"><ele>584.8571428571429</ele><time>2026-05-03T13:16:51.106Z</time></trkpt><trkpt lat="49.9572905" lon="16.8082414"><ele>585.1428571428571</ele><time>2026-05-03T13:16:57.097Z</time></trkpt><trkpt lat="49.9572933" lon="16.8083418"><ele>585.4285714285714</ele><time>2026-05-03T13:17:05.108Z</time></trkpt><trkpt lat="49.9573111" lon="16.8084479"><ele>585.7142857142857</ele><time>2026-05-03T13:17:12.12Z</time></trkpt><trkpt lat="49.9573361" lon="16.8085406"><ele>586.0</ele><time>2026-05-03T13:17:18.088Z</time></trkpt><trkpt lat="49.957343" lon="16.8086457"><ele>586.2857142857142</ele><time>2026-05-03T13:17:52.096Z</time></trkpt><trkpt lat="49.9573589" lon="16.8087454"><ele>586.5714285714286</ele><time>2026-05-03T13:19:58.086Z</time></trkpt><trkpt lat="49.9573831" lon="16.8088444"><ele>586.8571428571429</ele><time>2026-05-03T13:20:05.033Z</time></trkpt><trkpt lat="49.9573811" lon="16.8089529"><ele>587.1428571428571</ele><time>2026-05-03T13:20:13.097Z</time></trkpt><trkpt lat="49.95739" lon="16.8090666"><ele>587.4285714285714</ele><time>2026-05-03T13:20:24.081Z</time></trkpt><trkpt lat="49.957427" lon="16.8091486"><ele>587.7142857142857</ele><time>2026-05-03T13:20:35.042Z</time></trkpt><trkpt lat="49.9573874" lon="16.8092335"><ele>588.0</ele><time>2026-05-03T13:20:42.109Z</time></trkpt><trkpt lat="49.9573512" lon="16.8093291"><ele>588.5714285714286</ele><time>2026-05-03T13:21:17.097Z</time></trkpt><trkpt lat="49.9573586" lon="16.8094327"><ele>589.1428571428571</ele><time>2026-05-03T13:21:50.087Z</time></trkpt><trkpt lat="49.9573527" lon="16.8095581"><ele>589.7142857142858</ele><time>2026-05-03T13:22:06.129Z</time></trkpt><trkpt lat="49.9573368" lon="16.8096533"><ele>590.2857142857142</ele><time>2026-05-03T13:22:17.111Z</time></trkpt><trkpt lat="49.9573055" lon="16.8097534"><ele>590.8571428571429</ele><time>2026-05-03T13:22:30.089Z</time></trkpt><trkpt lat="49.9572941" lon="16.8098502"><ele>591.4285714285714</ele><time>2026-05-03T13:22:36.102Z</time></trkpt><trkpt lat="49.9573202" lon="16.8099419"><ele>592.0</ele><time>2026-05-03T13:22:48.074Z</time></trkpt><trkpt lat="49.9572973" lon="16.8100507"><ele>592.0</ele><time>2026-05-03T13:22:55.106Z</time></trkpt><trkpt lat="49.9572842" lon="16.810152"><ele>592.0</ele><time>2026-05-03T13:23:03.136Z</time></trkpt><trkpt lat="49.9572579" lon="16.8102466"><ele>592.0</ele><time>2026-05-03T13:23:12.118Z</time></trkpt><trkpt lat="49.957267" lon="16.8103494"><ele>592.0</ele><time>2026-05-03T13:23:26.104Z</time></trkpt><trkpt lat="49.9572692" lon="16.810448"><ele>592.0</ele><time>2026-05-03T13:23:35.118Z</time></trkpt><trkpt lat="49.9572706" lon="16.8105501"><ele>592.0</ele><time>2026-05-03T13:23:43.081Z</time></trkpt><trkpt lat="49.957275" lon="16.8106514"><ele>592.0</ele><time>2026-05-03T13:23:53.042Z</time></trkpt><trkpt lat="49.9572755" lon="16.8107604"><ele>592.4285714285714</ele><time>2026-05-03T13:24:03.1Z</time></trkpt><trkpt lat="49.9573092" lon="16.8108458"><ele>592.8571428571429</ele><time>2026-05-03T13:24:11.094Z</time></trkpt><trkpt lat="49.9573405" lon="16.8109313"><ele>593.2857142857142</ele><time>2026-05-03T13:24:21.074Z</time></trkpt><trkpt lat="49.9573584" lon="16.8110364"><ele>593.7142857142858</ele><time>2026-05-03T13:24:30.128Z</time></trkpt><trkpt lat="49.9573627" lon="16.8111408"><ele>594.1428571428571</ele><time>2026-05-03T13:24:39.096Z</time></trkpt><trkpt lat="49.9573912" lon="16.8112725"><ele>594.5714285714286</ele><time>2026-05-03T13:25:08.099Z</time></trkpt><trkpt lat="49.9574182" lon="16.8113634"><ele>595.0</ele><time>2026-05-03T13:25:15.117Z</time></trkpt><trkpt lat="49.9574381" lon="16.8114637"><ele>595.0</ele><time>2026-05-03T13:25:24.109Z</time></trkpt><trkpt lat="49.957457" lon="16.8115613"><ele>595.0</ele><time>2026-05-03T13:25:33.09Z</time></trkpt><trkpt lat="49.9574744" lon="16.8116622"><ele>595.0</ele><time>2026-05-03T13:25:43.112Z</time></trkpt><trkpt lat="49.9575064" lon="16.8117478"><ele>595.0</ele><time>2026-05-03T13:26:01.101Z</time></trkpt><trkpt lat="49.9575446" lon="16.8118364"><ele>595.0</ele><time>2026-05-03T13:26:12.022Z</time></trkpt><trkpt lat="49.9575665" lon="16.8119289"><ele>595.0</ele><time>2026-05-03T13:26:22.096Z</time></trkpt><trkpt lat="49.957592" lon="16.8120214"><ele>595.0</ele><time>2026-05-03T13:26:33.054Z</time></trkpt><trkpt lat="49.9576058" lon="16.8121192"><ele>595.6666666666667</ele><time>2026-05-03T13:27:01.107Z</time></trkpt><trkpt lat="49.9576313" lon="16.8122136"><ele>596.3333333333334</ele><time>2026-05-03T13:27:33.084Z</time></trkpt><trkpt lat="49.9576626" lon="16.8123002"><ele>597.0</ele><time>2026-05-03T13:27:45.103Z</time></trkpt><trkpt lat="49.957662" lon="16.8124818"><ele>597.6666666666666</ele><time>2026-05-03T13:27:59.084Z</time></trkpt><trkpt lat="49.9576756" lon="16.8125836"><ele>598.3333333333333</ele><time>2026-05-03T13:28:07.106Z</time></trkpt><trkpt lat="49.9576821" lon="16.8126867"><ele>599.0</ele><time>2026-05-03T13:28:22.122Z</time></trkpt><trkpt lat="49.957692" lon="16.8128226"><ele>599.0</ele><time>2026-05-03T13:28:34.034Z</time></trkpt><trkpt lat="49.9577029" lon="16.8129225"><ele>599.0</ele><time>2026-05-03T13:28:51.079Z</time></trkpt><trkpt lat="49.9576895" lon="16.8130199"><ele>599.0</ele><time>2026-05-03T13:28:59.092Z</time></trkpt><trkpt lat="49.957713" lon="16.8131297"><ele>599.0</ele><time>2026-05-03T13:29:07.705Z</time></trkpt><trkpt lat="49.9577601" lon="16.8132012"><ele>599.0</ele><time>2026-05-03T13:29:15.11Z</time></trkpt><trkpt lat="49.9578196" lon="16.8131487"><ele>599.0</ele><time>2026-05-03T13:29:25.042Z</time></trkpt><trkpt lat="49.9578851" lon="16.8131453"><ele>599.0</ele><time>2026-05-03T13:29:35.092Z</time></trkpt><trkpt lat="49.9578376" lon="16.8130462"><ele>599.0</ele><time>2026-05-03T13:34:44.094Z</time></trkpt><trkpt lat="49.9577804" lon="16.8129816"><ele>599.0</ele><time>2026-05-03T13:34:49.119Z</time></trkpt><trkpt lat="49.957727" lon="16.8129094"><ele>599.0</ele><time>2026-05-03T13:34:56.114Z</time></trkpt><trkpt lat="49.9576849" lon="16.8128215"><ele>599.0</ele><time>2026-05-03T13:35:18.092Z</time></trkpt><trkpt lat="49.9576531" lon="16.8126923"><ele>599.0</ele><time>2026-05-03T13:35:21.11Z</time></trkpt><trkpt lat="49.9576437" lon="16.8125949"><ele>599.0</ele><time>2026-05-03T13:35:23.051Z</time></trkpt><trkpt lat="49.9576179" lon="16.8125036"><ele>599.0</ele><time>2026-05-03T13:35:30.109Z</time></trkpt><trkpt lat="49.9575758" lon="16.8124307"><ele>599.1428571428571</ele><time>2026-05-03T13:35:39.082Z</time></trkpt><trkpt lat="49.9575379" lon="16.8123429"><ele>599.2857142857142</ele><time>2026-05-03T13:35:46.086Z</time></trkpt><trkpt lat="49.957571" lon="16.812228"><ele>599.4285714285713</ele><time>2026-05-03T13:36:00.108Z</time></trkpt><trkpt lat="49.9575694" lon="16.8121251"><ele>599.5714285714286</ele><time>2026-05-03T13:36:11.099Z</time></trkpt><trkpt lat="49.9576101" lon="16.8120163"><ele>599.7142857142857</ele><time>2026-05-03T13:36:22.012Z</time></trkpt><trkpt lat="49.9575798" lon="16.811918"><ele>599.8571428571428</ele><time>2026-05-03T13:36:27.101Z</time></trkpt><trkpt lat="49.9575628" lon="16.8118173"><ele>600.0</ele><time>2026-05-03T13:36:35.091Z</time></trkpt><trkpt lat="49.957511" lon="16.8117595"><ele>599.2857142857142</ele><time>2026-05-03T13:36:42.136Z</time></trkpt><trkpt lat="49.9575032" lon="16.8116616"><ele>598.5714285714286</ele><time>2026-05-03T13:36:48.107Z</time></trkpt><trkpt lat="49.9574899" lon="16.8115574"><ele>597.8571428571429</ele><time>2026-05-03T13:36:58.111Z</time></trkpt><trkpt lat="49.9574665" lon="16.81145"><ele>597.1428571428571</ele><time>2026-05-03T13:37:10.097Z</time></trkpt><trkpt lat="49.9574357" lon="16.8113604"><ele>596.4285714285714</ele><time>2026-05-03T13:37:17.09Z</time></trkpt><trkpt lat="49.9574064" lon="16.811267"><ele>595.7142857142857</ele><time>2026-05-03T13:37:27.093Z</time></trkpt><trkpt lat="49.9573936" lon="16.8111665"><ele>595.0</ele><time>2026-05-03T13:37:36.106Z</time></trkpt><trkpt lat="49.9573557" lon="16.8110782"><ele>595.0</ele><time>2026-05-03T13:37:44.111Z</time></trkpt><trkpt lat="49.9573495" lon="16.8109803"><ele>595.0</ele><time>2026-05-03T13:37:52.12Z</time></trkpt><trkpt lat="49.9573461" lon="16.8108825"><ele>595.0</ele><time>2026-05-03T13:38:01.123Z</time></trkpt><trkpt lat="49.9573223" lon="16.8107753"><ele>595.0</ele><time>2026-05-03T13:38:10.101Z</time></trkpt><trkpt lat="49.9573107" lon="16.8106782"><ele>595.0</ele><time>2026-05-03T13:38:20.085Z</time></trkpt><trkpt lat="49.9572923" lon="16.810536"><ele>595.0</ele><time>2026-05-03T13:38:46.111Z</time></trkpt><trkpt lat="49.9572867" lon="16.8104285"><ele>595.0</ele><time>2026-05-03T13:38:54.089Z</time></trkpt><trkpt lat="49.9572751" lon="16.8103183"><ele>595.0</ele><time>2026-05-03T13:39:03.045Z</time></trkpt><trkpt lat="49.9572848" lon="16.810217"><ele>595.0</ele><time>2026-05-03T13:39:17.065Z</time></trkpt><trkpt lat="49.9572701" lon="16.8101095"><ele>595.0</ele><time>2026-05-03T13:39:29.059Z</time></trkpt><trkpt lat="49.9572809" lon="16.8100082"><ele>595.0</ele><time>2026-05-03T13:39:41.032Z</time></trkpt><trkpt lat="49.9573213" lon="16.8099321"><ele>595.0</ele><time>2026-05-03T13:40:15.063Z</time></trkpt><trkpt lat="49.9573089" lon="16.809825"><ele>595.0</ele><time>2026-05-03T13:40:24.082Z</time></trkpt><trkpt lat="49.9573091" lon="16.8097168"><ele>595.0</ele><time>2026-05-03T13:40:32.099Z</time></trkpt><trkpt lat="49.9573074" lon="16.8096159"><ele>594.5714285714286</ele><time>2026-05-03T13:40:39.988Z</time></trkpt><trkpt lat="49.9573316" lon="16.8095161"><ele>594.1428571428571</ele><time>2026-05-03T13:40:47.95Z</time></trkpt><trkpt lat="49.9573314" lon="16.8094055"><ele>593.7142857142858</ele><time>2026-05-03T13:40:55.103Z</time></trkpt><trkpt lat="49.9573419" lon="16.8092992"><ele>593.2857142857142</ele><time>2026-05-03T13:41:01.107Z</time></trkpt><trkpt lat="49.9573575" lon="16.8091941"><ele>592.8571428571429</ele><time>2026-05-03T13:41:08.107Z</time></trkpt><trkpt lat="49.9573767" lon="16.8090897"><ele>592.4285714285714</ele><time>2026-05-03T13:41:17.097Z</time></trkpt><trkpt lat="49.9573641" lon="16.8089819"><ele>592.0</ele><time>2026-05-03T13:41:29.098Z</time></trkpt><trkpt lat="49.9573806" lon="16.808876"><ele>588.0</ele><time>2026-05-03T13:41:35.977Z</time></trkpt><trkpt lat="49.9573704" lon="16.8087743"><ele>588.0</ele><time>2026-05-03T13:41:50.037Z</time></trkpt><trkpt lat="49.9573574" lon="16.8086782"><ele>588.0</ele><time>2026-05-03T13:41:58.036Z</time></trkpt><trkpt lat="49.9573439" lon="16.8085749"><ele>588.0</ele><time>2026-05-03T13:42:10.045Z</time></trkpt><trkpt lat="49.9573251" lon="16.8084809"><ele>586.0</ele><time>2026-05-03T13:42:19.043Z</time></trkpt><trkpt lat="49.9573105" lon="16.8083751"><ele>586.0</ele><time>2026-05-03T13:42:33.059Z</time></trkpt><trkpt lat="49.9573157" lon="16.8082761"><ele>586.0</ele><time>2026-05-03T13:42:44.04Z</time></trkpt></trkseg></trk></gpx>